Time,TemperatureF,DewpointF,PressureIn,WindDirection,WindDirectionDegrees,WindSpeedMPH,WindSpeedGustMPH,Humidity,HourlyPrecipIn,Conditions,Clouds,dailyrainin,SoftwareType,DateUTC
2013-02-04 00:00:00,32.0,22.0,29.81,WSW,248,1.1,2.5,66,0.00,,,0.00,WUHU216HW,2013-02-04 07:00:00,
2013-02-04 00:03:00,32.0,22.0,29.81,SW,225,2.7,2.7,66,0.00,,,0.00,WUHU216HW,2013-02-04 07:03:00,
2013-02-04 00:05:00,31.9,21.8,29.81,West,270,0.9,2.7,66,0.00,,,0.00,WUHU216HW,2013-02-04 07:05:00,
2013-02-04 00:08:00,31.7,21.6,29.81,SSW,203,0.9,2.7,66,0.00,,,0.00,WUHU216HW,2013-02-04 07:08:00,
2013-02-04 00:10:00,31.7,21.6,29.81,SSW,203,1.1,2.7,66,0.00,,,0.00,WUHU216HW,2013-02-04 07:10:00,
2013-02-04 00:13:00,31.7,21.6,29.81,SW,225,1.3,1.8,66,0.00,,,0.00,WUHU216HW,2013-02-04 07:13:00,
2013-02-04 00:15:00,31.7,21.6,29.81,SSW,203,1.8,1.8,66,0.00,,,0.00,WUHU216HW,2013-02-04 07:15:00,
2013-02-04 00:19:00,31.5,21.4,29.81,SW,225,1.6,1.8,66,0.00,,,0.00,WUHU216HW,2013-02-04 07:19:00,
2013-02-04 00:20:00,31.5,21.4,29.80,SW,225,2.5,2.5,66,0.00,,,0.00,WUHU216HW,2013-02-04 07:20:00,
2013-02-04 00:24:00,31.3,21.2,29.81,West,270,0.4,2.5,66,0.00,,,0.00,WUHU216HW,2013-02-04 07:24:00,
2013-02-04 00:25:00,31.3,21.2,29.80,SSW,203,2.2,2.5,66,0.00,,,0.00,WUHU216HW,2013-02-04 07:25:00,
2013-02-04 00:26:00,31.3,21.2,29.80,SSW,203,2.2,2.5,66,0.00,,,0.00,WUHU216HW,2013-02-04 07:26:00,
2013-02-04 00:29:00,31.1,21.1,29.80,SW,225,1.3,2.5,66,0.00,,,0.00,WUHU216HW,2013-02-04 07:29:00,
2013-02-04 00:31:00,31.1,21.1,29.80,SW,225,0.7,2.2,66,0.00,,,0.00,WUHU216HW,2013-02-04 07:31:00,
2013-02-04 00:32:00,31.0,20.9,29.80,SW,225,1.1,2.2,66,0.00,,,0.00,WUHU216HW,2013-02-04 07:32:00,
2013-02-04 00:34:00,31.0,20.9,29.80,SW,225,1.8,2.2,66,0.00,,,0.00,WUHU216HW,2013-02-04 07:34:00,
2013-02-04 00:36:00,30.8,21.1,29.80,SSW,203,4.9,4.9,67,0.00,,,0.00,WUHU216HW,2013-02-04 07:36:00,
2013-02-04 00:37:00,30.8,21.1,29.80,SSW,203,2.9,4.9,67,0.00,,,0.00,WUHU216HW,2013-02-04 07:37:00,
2013-02-04 00:39:00,30.6,20.9,29.80,WSW,248,1.8,4.9,67,0.00,,,0.00,WUHU216HW,2013-02-04 07:39:00,
2013-02-04 00:41:00,30.6,20.9,29.80,SW,225,0.0,4.9,67,0.00,,,0.00,WUHU216HW,2013-02-04 07:41:00,
2013-02-04 00:42:00,30.6,21.2,29.80,ENE,68,0.4,4.9,68,0.00,,,0.00,WUHU216HW,2013-02-04 07:42:00,
2013-02-04 00:44:00,30.6,21.2,29.80,SSW,203,0.7,4.9,68,0.00,,,0.00,WUHU216HW,2013-02-04 07:44:00,
2013-02-04 00:46:00,30.4,21.1,29.80,WSW,248,0.4,3.1,68,0.00,,,0.00,WUHU216HW,2013-02-04 07:46:00,
2013-02-04 00:47:00,30.4,21.1,29.80,WSW,248,0.4,2.5,68,0.00,,,0.00,WUHU216HW,2013-02-04 07:47:00,
2013-02-04 00:49:00,30.4,21.1,29.80,SSW,203,0.4,2.5,68,0.00,,,0.00,WUHU216HW,2013-02-04 07:49:00,
2013-02-04 00:51:00,30.4,21.4,29.80,SSW,203,1.6,2.0,69,0.00,,,0.00,WUHU216HW,2013-02-04 07:51:00,
2013-02-04 00:52:00,30.4,21.4,29.80,SSW,203,0.0,2.0,69,0.00,,,0.00,WUHU216HW,2013-02-04 07:52:00,
2013-02-04 00:54:00,30.4,21.4,29.80,NW,315,0.4,2.0,69,0.00,,,0.00,WUHU216HW,2013-02-04 07:54:00,
2013-02-04 00:56:00,30.4,21.4,29.80,SW,225,0.4,2.0,69,0.00,,,0.00,WUHU216HW,2013-02-04 07:56:00,
2013-02-04 00:57:00,30.4,21.4,29.80,SW,225,0.2,2.0,69,0.00,,,0.00,WUHU216HW,2013-02-04 07:57:00,
2013-02-04 00:59:00,30.6,21.6,29.80,WSW,248,0.7,2.0,69,0.00,,,0.00,WUHU216HW,2013-02-04 07:59:00,
2013-02-04 01:02:00,30.6,21.6,29.80,SW,225,0.4,1.1,69,0.00,,,0.00,WUHU216HW,2013-02-04 08:02:00,
2013-02-04 01:04:00,30.6,21.6,29.80,SSW,203,0.9,1.1,69,0.00,,,0.00,WUHU216HW,2013-02-04 08:04:00,
2013-02-04 01:07:00,30.6,21.6,29.80,SSW,203,0.2,1.1,69,0.00,,,0.00,WUHU216HW,2013-02-04 08:07:00,
2013-02-04 01:08:00,30.6,21.6,29.80,SSW,203,0.2,1.1,69,0.00,,,0.00,WUHU216HW,2013-02-04 08:08:00,
2013-02-04 01:09:00,30.6,22.0,29.80,West,270,0.7,1.3,70,0.00,,,0.00,WUHU216HW,2013-02-04 08:09:00,
2013-02-04 01:12:00,30.6,22.0,29.79,West,270,0.4,1.3,70,0.00,,,0.00,WUHU216HW,2013-02-04 08:12:00,
2013-02-04 01:13:00,30.6,22.0,29.79,West,270,0.4,1.3,70,0.00,,,0.00,WUHU216HW,2013-02-04 08:13:00,
2013-02-04 01:14:00,30.6,22.0,29.79,WSW,248,1.1,1.3,70,0.00,,,0.00,WUHU216HW,2013-02-04 08:14:00,
2013-02-04 01:17:00,30.6,22.0,29.79,WSW,248,2.0,2.0,70,0.00,,,0.00,WUHU216HW,2013-02-04 08:17:00,
2013-02-04 01:18:00,30.8,22.1,29.79,West,270,1.8,2.0,70,0.00,,,0.00,WUHU216HW,2013-02-04 08:18:00,
2013-02-04 01:19:00,30.8,22.1,29.79,West,270,1.8,2.0,70,0.00,,,0.00,WUHU216HW,2013-02-04 08:19:00,
2013-02-04 01:22:00,31.0,22.3,29.78,WSW,248,3.1,4.0,70,0.00,,,0.00,WUHU216HW,2013-02-04 08:22:00,
2013-02-04 01:23:00,31.0,22.3,29.78,WSW,248,3.1,4.0,70,0.00,,,0.00,WUHU216HW,2013-02-04 08:23:00,
2013-02-04 01:24:00,31.0,22.3,29.78,West,270,2.2,4.0,70,0.00,,,0.00,WUHU216HW,2013-02-04 08:24:00,
2013-02-04 01:25:00,31.1,22.5,29.78,WSW,248,2.7,4.7,70,0.00,,,0.00,WUHU216HW,2013-02-04 08:25:00,
2013-02-04 01:27:00,31.3,22.7,29.78,WSW,248,1.8,4.7,70,0.00,,,0.00,WUHU216HW,2013-02-04 08:27:00,
2013-02-04 01:28:00,31.3,22.7,29.78,WSW,248,1.8,4.7,70,0.00,,,0.00,WUHU216HW,2013-02-04 08:28:00,
2013-02-04 01:29:00,31.3,22.7,29.78,WSW,248,1.8,4.7,70,0.00,,,0.00,WUHU216HW,2013-02-04 08:29:00,
2013-02-04 01:30:00,31.3,22.3,29.78,WSW,248,2.5,4.7,69,0.00,,,0.00,WUHU216HW,2013-02-04 08:30:00,
2013-02-04 01:32:00,31.5,22.5,29.78,West,270,1.1,4.7,69,0.00,,,0.00,WUHU216HW,2013-02-04 08:32:00,
2013-02-04 01:33:00,31.5,22.5,29.78,West,270,1.1,4.7,69,0.00,,,0.00,WUHU216HW,2013-02-04 08:33:00,
2013-02-04 01:34:00,31.5,22.5,29.78,SSW,203,1.3,4.7,69,0.00,,,0.00,WUHU216HW,2013-02-04 08:34:00,
2013-02-04 01:35:00,31.7,22.3,29.79,WSW,248,1.1,2.7,68,0.00,,,0.00,WUHU216HW,2013-02-04 08:35:00,
2013-02-04 01:37:00,31.7,22.3,29.79,WSW,248,1.1,2.5,68,0.00,,,0.00,WUHU216HW,2013-02-04 08:37:00,
2013-02-04 01:38:00,31.7,22.3,29.79,WSW,248,1.6,2.5,68,0.00,,,0.00,WUHU216HW,2013-02-04 08:38:00,
2013-02-04 01:39:00,31.7,22.3,29.79,WSW,248,4.0,4.0,68,0.00,,,0.00,WUHU216HW,2013-02-04 08:39:00,
2013-02-04 01:40:00,31.7,22.3,29.79,WSW,248,2.5,4.0,68,0.00,,,0.00,WUHU216HW,2013-02-04 08:40:00,
2013-02-04 01:42:00,31.7,22.3,29.79,WSW,248,2.0,4.0,68,0.00,,,0.00,WUHU216HW,2013-02-04 08:42:00,
2013-02-04 01:43:00,31.7,22.3,29.79,WSW,248,2.0,4.0,68,0.00,,,0.00,WUHU216HW,2013-02-04 08:43:00,
2013-02-04 01:44:00,31.7,22.3,29.79,SW,225,1.6,4.0,68,0.00,,,0.00,WUHU216HW,2013-02-04 08:44:00,
2013-02-04 01:46:00,31.7,22.0,29.79,SW,225,1.1,4.0,67,0.00,,,0.00,WUHU216HW,2013-02-04 08:46:00,
2013-02-04 01:47:00,31.7,22.0,29.78,WSW,248,1.3,4.0,67,0.00,,,0.00,WUHU216HW,2013-02-04 08:47:00,
2013-02-04 01:48:00,31.7,22.0,29.78,WSW,248,1.3,4.0,67,0.00,,,0.00,WUHU216HW,2013-02-04 08:48:00,
2013-02-04 01:49:00,31.5,21.8,29.78,SW,225,2.5,2.5,67,0.00,,,0.00,WUHU216HW,2013-02-04 08:49:00,
2013-02-04 01:51:00,31.5,21.8,29.78,SW,225,2.5,2.5,67,0.00,,,0.00,WUHU216HW,2013-02-04 08:51:00,
2013-02-04 01:53:00,31.5,21.8,29.78,WSW,248,2.2,3.4,67,0.00,,,0.00,WUHU216HW,2013-02-04 08:53:00,
2013-02-04 01:54:00,31.5,21.8,29.78,WSW,248,2.5,3.4,67,0.00,,,0.00,WUHU216HW,2013-02-04 08:54:00,
2013-02-04 01:56:00,31.5,21.8,29.78,WSW,248,1.6,3.4,67,0.00,,,0.00,WUHU216HW,2013-02-04 08:56:00,
2013-02-04 01:58:00,31.3,21.6,29.78,WSW,248,2.5,4.9,67,0.00,,,0.00,WUHU216HW,2013-02-04 08:58:00,
2013-02-04 01:59:00,31.3,21.6,29.78,WSW,248,2.7,4.9,67,0.00,,,0.00,WUHU216HW,2013-02-04 08:59:00,
2013-02-04 02:01:00,31.5,21.8,29.78,WSW,248,1.3,4.9,67,0.00,,,0.00,WUHU216HW,2013-02-04 09:01:00,
2013-02-04 02:03:00,31.5,21.8,29.78,SW,225,2.2,4.9,67,0.00,,,0.00,WUHU216HW,2013-02-04 09:03:00,
2013-02-04 02:04:00,31.5,21.8,29.78,SW,225,1.3,4.9,67,0.00,,,0.00,WUHU216HW,2013-02-04 09:04:00,
2013-02-04 02:06:00,31.5,21.8,29.78,WSW,248,1.8,4.9,67,0.00,,,0.00,WUHU216HW,2013-02-04 09:06:00,
2013-02-04 02:08:00,31.5,21.8,29.78,SW,225,2.5,3.4,67,0.00,,,0.00,WUHU216HW,2013-02-04 09:08:00,
2013-02-04 02:10:00,31.3,21.6,29.78,WSW,248,2.5,3.4,67,0.00,,,0.00,WUHU216HW,2013-02-04 09:10:00,
2013-02-04 02:11:00,31.3,21.6,29.79,SSW,203,1.3,3.4,67,0.00,,,0.00,WUHU216HW,2013-02-04 09:11:00,
2013-02-04 02:13:00,31.3,21.6,29.79,SW,225,0.7,3.4,67,0.00,,,0.00,WUHU216HW,2013-02-04 09:13:00,
2013-02-04 02:15:00,31.3,21.6,29.79,SSW,203,1.1,3.4,67,0.00,,,0.00,WUHU216HW,2013-02-04 09:15:00,
2013-02-04 02:16:00,31.3,21.6,29.79,SSW,203,4.5,4.5,67,0.00,,,0.00,WUHU216HW,2013-02-04 09:16:00,
2013-02-04 02:18:00,31.3,21.6,29.78,SSW,203,3.6,4.5,67,0.00,,,0.00,WUHU216HW,2013-02-04 09:18:00,
2013-02-04 02:20:00,31.3,21.6,29.79,WSW,248,2.2,4.5,67,0.00,,,0.00,WUHU216HW,2013-02-04 09:20:00,
2013-02-04 02:21:00,31.3,21.6,29.79,WSW,248,2.9,4.5,67,0.00,,,0.00,WUHU216HW,2013-02-04 09:21:00,
2013-02-04 02:23:00,31.3,21.6,29.79,West,270,2.2,4.5,67,0.00,,,0.00,WUHU216HW,2013-02-04 09:23:00,
2013-02-04 02:24:00,31.3,21.6,29.79,West,270,2.2,4.5,67,0.00,,,0.00,WUHU216HW,2013-02-04 09:24:00,
2013-02-04 02:25:00,31.3,21.6,29.79,WNW,293,0.7,4.5,67,0.00,,,0.00,WUHU216HW,2013-02-04 09:25:00,
2013-02-04 02:26:00,31.3,21.6,29.79,West,270,0.4,3.6,67,0.00,,,0.00,WUHU216HW,2013-02-04 09:26:00,
2013-02-04 02:28:00,31.3,21.6,29.79,SW,225,1.6,2.9,67,0.00,,,0.00,WUHU216HW,2013-02-04 09:28:00,
2013-02-04 02:29:00,31.3,21.6,29.78,WNW,293,1.3,2.9,67,0.00,,,0.00,WUHU216HW,2013-02-04 09:29:00,
2013-02-04 02:30:00,31.3,21.6,29.78,NW,315,0.4,2.9,67,0.00,,,0.00,WUHU216HW,2013-02-04 09:30:00,
2013-02-04 02:32:00,31.3,21.6,29.78,WNW,293,0.4,2.2,67,0.00,,,0.00,WUHU216HW,2013-02-04 09:32:00,
2013-02-04 02:33:00,31.3,21.6,29.79,West,270,0.0,1.6,67,0.00,,,0.00,WUHU216HW,2013-02-04 09:33:00,
2013-02-04 02:34:00,31.3,21.6,29.79,WSW,248,2.0,2.0,67,0.00,,,0.00,WUHU216HW,2013-02-04 09:34:00,
2013-02-04 02:35:00,31.3,21.6,29.78,West,270,2.2,2.2,67,0.00,,,0.00,WUHU216HW,2013-02-04 09:35:00,
2013-02-04 02:37:00,31.3,21.6,29.78,WSW,248,1.6,2.2,67,0.00,,,0.00,WUHU216HW,2013-02-04 09:37:00,
2013-02-04 02:38:00,31.3,21.6,29.79,West,270,0.4,2.2,67,0.00,,,0.00,WUHU216HW,2013-02-04 09:38:00,
2013-02-04 02:39:00,31.3,21.6,29.78,West,270,0.2,2.2,67,0.00,,,0.00,WUHU216HW,2013-02-04 09:39:00,
2013-02-04 02:40:00,31.1,21.4,29.78,SW,225,1.8,2.2,67,0.00,,,0.00,WUHU216HW,2013-02-04 09:40:00,
2013-02-04 02:42:00,31.1,21.4,29.78,SW,225,0.9,2.2,67,0.00,,,0.00,WUHU216HW,2013-02-04 09:42:00,
2013-02-04 02:44:00,31.1,21.4,29.78,West,270,1.1,2.2,67,0.00,,,0.00,WUHU216HW,2013-02-04 09:44:00,
2013-02-04 02:45:00,31.3,21.6,29.78,WSW,248,0.9,1.8,67,0.00,,,0.00,WUHU216HW,2013-02-04 09:45:00,
2013-02-04 02:47:00,31.3,21.6,29.78,SW,225,1.8,1.8,67,0.00,,,0.00,WUHU216HW,2013-02-04 09:47:00,
2013-02-04 02:49:00,31.3,21.6,29.78,WSW,248,2.9,2.9,67,0.00,,,0.00,WUHU216HW,2013-02-04 09:49:00,
2013-02-04 02:50:00,31.3,21.6,29.78,WSW,248,2.9,2.9,67,0.00,,,0.00,WUHU216HW,2013-02-04 09:50:00,
2013-02-04 02:51:00,31.3,21.6,29.78,SSW,203,1.6,2.9,67,0.00,,,0.00,WUHU216HW,2013-02-04 09:51:00,
2013-02-04 02:52:00,31.3,21.6,29.78,SW,225,1.3,2.9,67,0.00,,,0.00,WUHU216HW,2013-02-04 09:52:00,
2013-02-04 02:54:00,31.3,21.6,29.78,SW,225,1.1,2.9,67,0.00,,,0.00,WUHU216HW,2013-02-04 09:54:00,
2013-02-04 02:55:00,31.3,21.6,29.78,SW,225,1.1,2.9,67,0.00,,,0.00,WUHU216HW,2013-02-04 09:55:00,
2013-02-04 02:56:00,31.3,21.6,29.78,SW,225,0.7,2.9,67,0.00,,,0.00,WUHU216HW,2013-02-04 09:56:00,
2013-02-04 02:57:00,31.3,21.6,29.78,WSW,248,1.1,2.9,67,0.00,,,0.00,WUHU216HW,2013-02-04 09:57:00,
2013-02-04 03:00:00,31.3,21.6,29.78,SW,225,1.6,1.8,67,0.00,,,0.00,WUHU216HW,2013-02-04 10:00:00,
2013-02-04 03:01:00,31.3,21.6,29.78,WSW,248,0.4,1.8,67,0.00,,,0.00,WUHU216HW,2013-02-04 10:01:00,
2013-02-04 03:02:00,31.3,21.6,29.78,SW,225,0.7,1.8,67,0.00,,,0.00,WUHU216HW,2013-02-04 10:02:00,
2013-02-04 03:05:00,31.3,21.6,29.78,West,270,1.1,1.8,67,0.00,,,0.00,WUHU216HW,2013-02-04 10:05:00,
2013-02-04 03:06:00,31.3,21.6,29.79,SW,225,0.2,1.8,67,0.00,,,0.00,WUHU216HW,2013-02-04 10:06:00,
2013-02-04 03:07:00,31.3,21.6,29.79,SW,225,0.0,1.8,67,0.00,,,0.00,WUHU216HW,2013-02-04 10:07:00,
2013-02-04 03:10:00,31.3,21.6,29.79,South,180,0.2,1.1,67,0.00,,,0.00,WUHU216HW,2013-02-04 10:10:00,
2013-02-04 03:11:00,31.1,21.4,29.78,South,180,0.0,1.1,67,0.00,,,0.00,WUHU216HW,2013-02-04 10:11:00,
2013-02-04 03:12:00,31.1,21.4,29.78,SSE,158,0.2,1.1,67,0.00,,,0.00,WUHU216HW,2013-02-04 10:12:00,
2013-02-04 03:15:00,31.3,21.6,29.78,South,180,0.4,0.4,67,0.00,,,0.00,WUHU216HW,2013-02-04 10:15:00,
2013-02-04 03:17:00,31.1,21.4,29.78,SSE,158,0.7,0.7,67,0.00,,,0.00,WUHU216HW,2013-02-04 10:17:00,
2013-02-04 03:20:00,31.1,21.4,29.78,South,180,0.4,0.9,67,0.00,,,0.00,WUHU216HW,2013-02-04 10:20:00,
2013-02-04 03:22:00,31.3,21.6,29.78,SSW,203,1.6,1.6,67,0.00,,,0.00,WUHU216HW,2013-02-04 10:22:00,
2013-02-04 03:25:00,31.1,21.4,29.78,SSW,203,2.0,2.5,67,0.00,,,0.00,WUHU216HW,2013-02-04 10:25:00,
2013-02-04 03:27:00,31.1,21.4,29.78,West,270,3.4,3.4,67,0.00,,,0.00,WUHU216HW,2013-02-04 10:27:00,
2013-02-04 03:30:00,31.1,21.4,29.78,SW,225,4.5,4.5,67,0.00,,,0.00,WUHU216HW,2013-02-04 10:30:00,
2013-02-04 03:32:00,31.3,21.6,29.77,SW,225,4.5,4.5,67,0.00,,,0.00,WUHU216HW,2013-02-04 10:32:00,
2013-02-04 03:35:00,31.3,21.6,29.78,SSW,203,2.2,4.5,67,0.00,,,0.00,WUHU216HW,2013-02-04 10:35:00,
2013-02-04 03:36:00,31.3,21.6,29.78,SSW,203,2.2,4.5,67,0.00,,,0.00,WUHU216HW,2013-02-04 10:36:00,
2013-02-04 03:37:00,31.3,21.6,29.77,WSW,248,2.5,4.5,67,0.00,,,0.00,WUHU216HW,2013-02-04 10:37:00,
2013-02-04 03:40:00,31.3,21.6,29.77,WSW,248,0.4,4.5,67,0.00,,,0.00,WUHU216HW,2013-02-04 10:40:00,
2013-02-04 03:41:00,31.3,21.6,29.77,WSW,248,0.4,4.5,67,0.00,,,0.00,WUHU216HW,2013-02-04 10:41:00,
2013-02-04 03:42:00,31.3,21.6,29.77,West,270,3.4,4.0,67,0.00,,,0.00,WUHU216HW,2013-02-04 10:42:00,
2013-02-04 03:45:00,31.3,21.6,29.77,SSW,203,2.2,3.4,67,0.00,,,0.00,WUHU216HW,2013-02-04 10:45:00,
2013-02-04 03:46:00,31.3,21.6,29.77,SSW,203,2.2,3.4,67,0.00,,,0.00,WUHU216HW,2013-02-04 10:46:00,
2013-02-04 03:47:00,31.3,21.6,29.77,WSW,248,3.1,3.4,67,0.00,,,0.00,WUHU216HW,2013-02-04 10:47:00,
2013-02-04 03:50:00,31.3,21.6,29.77,SW,225,2.5,3.4,67,0.00,,,0.00,WUHU216HW,2013-02-04 10:50:00,
2013-02-04 03:51:00,31.3,21.6,29.77,SW,225,2.5,3.4,67,0.00,,,0.00,WUHU216HW,2013-02-04 10:51:00,
2013-02-04 03:52:00,31.3,21.6,29.77,SW,225,1.6,3.4,67,0.00,,,0.00,WUHU216HW,2013-02-04 10:52:00,
2013-02-04 03:53:00,31.3,21.6,29.77,SW,225,1.6,3.4,67,0.00,,,0.00,WUHU216HW,2013-02-04 10:53:00,
2013-02-04 03:55:00,31.3,21.6,29.77,SSW,203,1.6,3.4,67,0.00,,,0.00,WUHU216HW,2013-02-04 10:55:00,
2013-02-04 03:56:00,31.3,21.6,29.77,SSW,203,1.6,3.4,67,0.00,,,0.00,WUHU216HW,2013-02-04 10:56:00,
2013-02-04 03:58:00,31.3,21.6,29.76,West,270,2.5,3.4,67,0.00,,,0.00,WUHU216HW,2013-02-04 10:58:00,
2013-02-04 04:00:00,31.3,21.6,29.76,South,180,0.9,4.0,67,0.00,,,0.00,WUHU216HW,2013-02-04 11:00:00,
2013-02-04 04:01:00,31.5,21.8,29.76,SSW,203,1.6,4.0,67,0.00,,,0.00,WUHU216HW,2013-02-04 11:01:00,
2013-02-04 04:03:00,31.5,21.8,29.76,WSW,248,2.0,4.0,67,0.00,,,0.00,WUHU216HW,2013-02-04 11:03:00,
2013-02-04 04:05:00,31.5,21.4,29.76,WSW,248,2.2,4.0,66,0.00,,,0.00,WUHU216HW,2013-02-04 11:05:00,
2013-02-04 04:06:00,31.5,21.4,29.76,WSW,248,3.4,4.0,66,0.00,,,0.00,WUHU216HW,2013-02-04 11:06:00,
2013-02-04 04:08:00,31.5,21.4,29.76,West,270,3.1,4.7,66,0.00,,,0.00,WUHU216HW,2013-02-04 11:08:00,
2013-02-04 04:10:00,31.5,21.4,29.76,SW,225,1.6,4.7,66,0.00,,,0.00,WUHU216HW,2013-02-04 11:10:00,
2013-02-04 04:11:00,31.7,21.6,29.76,SW,225,1.8,4.7,66,0.00,,,0.00,WUHU216HW,2013-02-04 11:11:00,
2013-02-04 04:13:00,31.7,21.6,29.77,SW,225,3.6,4.7,66,0.00,,,0.00,WUHU216HW,2013-02-04 11:13:00,
2013-02-04 04:15:00,31.7,21.6,29.77,West,270,3.6,4.7,66,0.00,,,0.00,WUHU216HW,2013-02-04 11:15:00,
2013-02-04 04:16:00,31.5,21.4,29.77,WSW,248,1.8,4.7,66,0.00,,,0.00,WUHU216HW,2013-02-04 11:16:00,
2013-02-04 04:18:00,31.5,21.4,29.77,WNW,293,2.5,4.5,66,0.00,,,0.00,WUHU216HW,2013-02-04 11:18:00,
2013-02-04 04:21:00,31.5,21.4,29.76,WSW,248,2.9,4.5,66,0.00,,,0.00,WUHU216HW,2013-02-04 11:21:00,
2013-02-04 04:23:00,31.5,21.4,29.76,West,270,2.9,4.5,66,0.00,,,0.00,WUHU216HW,2013-02-04 11:23:00,
2013-02-04 04:25:00,31.5,21.4,29.76,SW,225,4.7,4.7,66,0.00,,,0.00,WUHU216HW,2013-02-04 11:25:00,
2013-02-04 04:26:00,31.5,21.4,29.76,NW,315,3.4,4.7,66,0.00,,,0.00,WUHU216HW,2013-02-04 11:26:00,
2013-02-04 04:28:00,31.3,21.2,29.76,West,270,1.8,4.7,66,0.00,,,0.00,WUHU216HW,2013-02-04 11:28:00,
2013-02-04 04:31:00,31.3,21.2,29.76,WSW,248,1.8,4.7,66,0.00,,,0.00,WUHU216HW,2013-02-04 11:31:00,
2013-02-04 04:32:00,31.3,21.2,29.76,WSW,248,1.1,4.7,66,0.00,,,0.00,WUHU216HW,2013-02-04 11:32:00,
2013-02-04 04:33:00,31.3,21.2,29.77,SW,225,2.7,5.6,66,0.00,,,0.00,WUHU216HW,2013-02-04 11:33:00,
2013-02-04 04:36:00,31.3,21.2,29.76,WSW,248,1.1,5.6,66,0.00,,,0.00,WUHU216HW,2013-02-04 11:36:00,
2013-02-04 04:37:00,31.3,21.2,29.76,West,270,1.1,5.6,66,0.00,,,0.00,WUHU216HW,2013-02-04 11:37:00,
2013-02-04 04:38:00,31.3,21.2,29.77,WSW,248,3.1,5.6,66,0.00,,,0.00,WUHU216HW,2013-02-04 11:38:00,
2013-02-04 04:41:00,31.3,21.2,29.77,West,270,0.7,5.6,66,0.00,,,0.00,WUHU216HW,2013-02-04 11:41:00,
2013-02-04 04:42:00,31.3,21.2,29.77,West,270,2.2,5.6,66,0.00,,,0.00,WUHU216HW,2013-02-04 11:42:00,
2013-02-04 04:44:00,31.3,21.2,29.77,West,270,1.3,4.0,66,0.00,,,0.00,WUHU216HW,2013-02-04 11:44:00,
2013-02-04 04:46:00,31.3,21.2,29.77,WSW,248,2.7,4.0,66,0.00,,,0.00,WUHU216HW,2013-02-04 11:46:00,
2013-02-04 04:47:00,31.3,21.2,29.77,WSW,248,4.0,4.0,66,0.00,,,0.00,WUHU216HW,2013-02-04 11:47:00,
2013-02-04 04:49:00,31.3,21.2,29.77,WSW,248,1.3,4.0,66,0.00,,,0.00,WUHU216HW,2013-02-04 11:49:00,
2013-02-04 04:51:00,31.3,21.2,29.77,WSW,248,2.9,4.0,66,0.00,,,0.00,WUHU216HW,2013-02-04 11:51:00,
2013-02-04 04:52:00,31.3,21.2,29.77,South,180,1.6,4.0,66,0.00,,,0.00,WUHU216HW,2013-02-04 11:52:00,
2013-02-04 04:54:00,31.3,21.2,29.77,WSW,248,1.8,4.0,66,0.00,,,0.00,WUHU216HW,2013-02-04 11:54:00,
2013-02-04 04:55:00,31.3,21.2,29.77,West,270,1.1,4.0,66,0.00,,,0.00,WUHU216HW,2013-02-04 11:55:00,
2013-02-04 04:56:00,31.3,21.2,29.77,West,270,3.4,4.0,66,0.00,,,0.00,WUHU216HW,2013-02-04 11:56:00,
2013-02-04 04:57:00,31.3,21.2,29.77,West,270,2.9,3.4,66,0.00,,,0.00,WUHU216HW,2013-02-04 11:57:00,
2013-02-04 04:59:00,31.3,21.2,29.77,West,270,2.7,3.4,66,0.00,,,0.00,WUHU216HW,2013-02-04 11:59:00,
2013-02-04 05:00:00,31.3,21.2,29.77,West,270,1.8,3.4,66,0.00,,,0.00,WUHU216HW,2013-02-04 12:00:00,
2013-02-04 05:01:00,31.3,21.2,29.77,WSW,248,2.0,3.4,66,0.00,,,0.00,WUHU216HW,2013-02-04 12:01:00,
2013-02-04 05:02:00,31.3,21.2,29.77,West,270,3.4,3.4,66,0.00,,,0.00,WUHU216HW,2013-02-04 12:02:00,
2013-02-04 05:04:00,31.3,21.2,29.76,WSW,248,2.5,3.4,66,0.00,,,0.00,WUHU216HW,2013-02-04 12:04:00,
2013-02-04 05:05:00,31.3,21.2,29.76,WSW,248,3.4,3.4,66,0.00,,,0.00,WUHU216HW,2013-02-04 12:05:00,
2013-02-04 05:06:00,31.3,21.2,29.77,West,270,1.8,3.4,66,0.00,,,0.00,WUHU216HW,2013-02-04 12:06:00,
2013-02-04 05:08:00,31.3,21.2,29.77,WSW,248,2.9,3.4,66,0.00,,,0.00,WUHU216HW,2013-02-04 12:08:00,
2013-02-04 05:09:00,31.3,21.2,29.76,West,270,3.1,3.4,66,0.00,,,0.00,WUHU216HW,2013-02-04 12:09:00,
2013-02-04 05:10:00,31.3,21.2,29.77,West,270,2.7,3.4,66,0.00,,,0.00,WUHU216HW,2013-02-04 12:10:00,
2013-02-04 05:12:00,31.3,21.2,29.76,West,270,2.7,3.4,66,0.00,,,0.00,WUHU216HW,2013-02-04 12:12:00,
2013-02-04 05:13:00,31.3,21.2,29.76,WSW,248,2.0,3.4,66,0.00,,,0.00,WUHU216HW,2013-02-04 12:13:00,
2013-02-04 05:14:00,31.3,21.2,29.77,West,270,2.0,3.4,66,0.00,,,0.00,WUHU216HW,2013-02-04 12:14:00,
2013-02-04 05:15:00,31.3,21.2,29.76,West,270,2.0,3.1,66,0.00,,,0.00,WUHU216HW,2013-02-04 12:15:00,
2013-02-04 05:17:00,31.5,21.4,29.77,West,270,1.3,3.1,66,0.00,,,0.00,WUHU216HW,2013-02-04 12:17:00,
2013-02-04 05:18:00,31.5,21.4,29.77,West,270,1.3,3.1,66,0.00,,,0.00,WUHU216HW,2013-02-04 12:18:00,
2013-02-04 05:19:00,31.5,21.4,29.76,West,270,2.0,2.7,66,0.00,,,0.00,WUHU216HW,2013-02-04 12:19:00,
2013-02-04 05:20:00,31.5,21.4,29.76,West,270,1.3,2.7,66,0.00,,,0.00,WUHU216HW,2013-02-04 12:20:00,
2013-02-04 05:22:00,31.5,21.4,29.76,West,270,1.3,2.0,66,0.00,,,0.00,WUHU216HW,2013-02-04 12:22:00,
2013-02-04 05:23:00,31.7,22.0,29.76,West,270,3.1,3.1,67,0.00,,,0.00,WUHU216HW,2013-02-04 12:23:00,
2013-02-04 05:24:00,31.5,21.8,29.76,West,270,3.8,3.8,67,0.00,,,0.00,WUHU216HW,2013-02-04 12:24:00,
2013-02-04 05:26:00,31.7,21.6,29.76,WSW,248,2.7,3.8,66,0.00,,,0.00,WUHU216HW,2013-02-04 12:26:00,
2013-02-04 05:27:00,31.7,21.6,29.76,West,270,2.9,4.0,66,0.00,,,0.00,WUHU216HW,2013-02-04 12:27:00,
2013-02-04 05:28:00,31.7,21.6,29.76,West,270,2.9,4.0,66,0.00,,,0.00,WUHU216HW,2013-02-04 12:28:00,
2013-02-04 05:29:00,31.7,21.6,29.75,WSW,248,2.2,4.0,66,0.00,,,0.00,WUHU216HW,2013-02-04 12:29:00,
2013-02-04 05:31:00,31.7,21.6,29.75,West,270,1.8,4.0,66,0.00,,,0.00,WUHU216HW,2013-02-04 12:31:00,
2013-02-04 05:32:00,31.7,21.6,29.75,WSW,248,2.5,4.0,66,0.00,,,0.00,WUHU216HW,2013-02-04 12:32:00,
2013-02-04 05:33:00,31.7,21.6,29.75,WNW,293,1.8,4.0,66,0.00,,,0.00,WUHU216HW,2013-02-04 12:33:00,
2013-02-04 05:34:00,31.7,21.6,29.75,SSW,203,0.4,4.0,66,0.00,,,0.00,WUHU216HW,2013-02-04 12:34:00,
2013-02-04 05:36:00,31.7,21.6,29.75,West,270,1.1,2.9,66,0.00,,,0.00,WUHU216HW,2013-02-04 12:36:00,
2013-02-04 05:37:00,31.5,21.4,29.75,SW,225,1.6,2.7,66,0.00,,,0.00,WUHU216HW,2013-02-04 12:37:00,
2013-02-04 05:38:00,31.5,21.4,29.75,West,270,2.2,2.7,66,0.00,,,0.00,WUHU216HW,2013-02-04 12:38:00,
2013-02-04 05:40:00,31.5,21.4,29.75,WSW,248,0.4,2.7,66,0.00,,,0.00,WUHU216HW,2013-02-04 12:40:00,
2013-02-04 05:41:00,31.5,21.4,29.75,SW,225,1.3,2.5,66,0.00,,,0.00,WUHU216HW,2013-02-04 12:41:00,
2013-02-04 05:42:00,31.7,21.6,29.75,SW,225,2.0,2.2,66,0.00,,,0.00,WUHU216HW,2013-02-04 12:42:00,
2013-02-04 05:43:00,31.5,21.4,29.75,WSW,248,2.9,2.9,66,0.00,,,0.00,WUHU216HW,2013-02-04 12:43:00,
2013-02-04 05:45:00,31.5,21.4,29.75,SW,225,2.7,2.9,66,0.00,,,0.00,WUHU216HW,2013-02-04 12:45:00,
2013-02-04 05:46:00,31.5,21.8,29.75,WSW,248,2.5,2.9,67,0.00,,,0.00,WUHU216HW,2013-02-04 12:46:00,
2013-02-04 05:47:00,31.5,21.8,29.75,SW,225,1.8,2.9,67,0.00,,,0.00,WUHU216HW,2013-02-04 12:47:00,
2013-02-04 05:48:00,31.5,21.8,29.75,SW,225,1.3,2.9,67,0.00,,,0.00,WUHU216HW,2013-02-04 12:48:00,
2013-02-04 05:50:00,31.5,21.8,29.75,SW,225,1.1,2.9,67,0.00,,,0.00,WUHU216HW,2013-02-04 12:50:00,
2013-02-04 05:51:00,31.5,21.8,29.75,WSW,248,1.6,2.9,67,0.00,,,0.00,WUHU216HW,2013-02-04 12:51:00,
2013-02-04 05:52:00,31.5,21.8,29.75,SSW,203,1.6,2.9,67,0.00,,,0.00,WUHU216HW,2013-02-04 12:52:00,
2013-02-04 05:53:00,31.5,21.8,29.75,SSW,203,2.2,2.7,67,0.00,,,0.00,WUHU216HW,2013-02-04 12:53:00,
2013-02-04 05:55:00,31.5,21.8,29.75,SSW,203,2.7,2.9,67,0.00,,,0.00,WUHU216HW,2013-02-04 12:55:00,
2013-02-04 05:56:00,31.5,21.8,29.75,SW,225,0.4,2.9,67,0.00,,,0.00,WUHU216HW,2013-02-04 12:56:00,
2013-02-04 05:57:00,31.5,21.8,29.75,SW,225,0.2,2.9,67,0.00,,,0.00,WUHU216HW,2013-02-04 12:57:00,
2013-02-04 05:58:00,31.5,21.8,29.75,SW,225,1.1,2.9,67,0.00,,,0.00,WUHU216HW,2013-02-04 12:58:00,
2013-02-04 06:00:00,31.5,21.8,29.75,SW,225,2.7,2.9,67,0.00,,,0.00,WUHU216HW,2013-02-04 13:00:00,
2013-02-04 06:01:00,31.5,21.8,29.75,SW,225,2.9,2.9,67,0.00,,,0.00,WUHU216HW,2013-02-04 13:01:00,
2013-02-04 06:03:00,31.5,21.8,29.75,SW,225,2.5,2.9,67,0.00,,,0.00,WUHU216HW,2013-02-04 13:03:00,
2013-02-04 06:05:00,31.5,21.8,29.75,SW,225,1.3,2.9,67,0.00,,,0.00,WUHU216HW,2013-02-04 13:05:00,
2013-02-04 06:07:00,31.5,21.8,29.75,SSW,203,3.4,3.4,67,0.00,,,0.00,WUHU216HW,2013-02-04 13:07:00,
2013-02-04 06:08:00,31.5,21.8,29.75,WSW,248,1.8,3.4,67,0.00,,,0.00,WUHU216HW,2013-02-04 13:08:00,
2013-02-04 06:09:00,31.5,21.8,29.75,WSW,248,2.0,3.4,67,0.00,,,0.00,WUHU216HW,2013-02-04 13:09:00,
2013-02-04 06:11:00,31.5,21.8,29.75,SW,225,1.8,3.4,67,0.00,,,0.00,WUHU216HW,2013-02-04 13:11:00,
2013-02-04 06:12:00,31.5,21.8,29.75,WSW,248,2.9,3.4,67,0.00,,,0.00,WUHU216HW,2013-02-04 13:12:00,
2013-02-04 06:13:00,31.5,21.8,29.75,SSW,203,2.5,3.4,67,0.00,,,0.00,WUHU216HW,2013-02-04 13:13:00,
2013-02-04 06:14:00,31.5,21.8,29.75,SW,225,2.0,3.4,67,0.00,,,0.00,WUHU216HW,2013-02-04 13:14:00,
2013-02-04 06:16:00,31.5,21.8,29.75,SW,225,1.1,2.9,67,0.00,,,0.00,WUHU216HW,2013-02-04 13:16:00,
2013-02-04 06:17:00,31.5,21.8,29.75,WSW,248,2.5,2.9,67,0.00,,,0.00,WUHU216HW,2013-02-04 13:17:00,
2013-02-04 06:18:00,31.5,21.8,29.75,West,270,2.7,2.9,67,0.00,,,0.00,WUHU216HW,2013-02-04 13:18:00,
2013-02-04 06:19:00,31.7,22.0,29.75,West,270,1.8,2.9,67,0.00,,,0.00,WUHU216HW,2013-02-04 13:19:00,
2013-02-04 06:22:00,31.7,22.0,29.75,WSW,248,1.3,2.9,67,0.00,,,0.00,WUHU216HW,2013-02-04 13:22:00,
2013-02-04 06:23:00,31.7,22.0,29.75,West,270,2.5,2.7,67,0.00,,,0.00,WUHU216HW,2013-02-04 13:23:00,
2013-02-04 06:24:00,31.7,22.0,29.75,WSW,248,1.3,2.7,67,0.00,,,0.00,WUHU216HW,2013-02-04 13:24:00,
2013-02-04 06:27:00,31.7,22.0,29.75,West,270,1.8,2.7,67,0.00,,,0.00,WUHU216HW,2013-02-04 13:27:00,
2013-02-04 06:28:00,31.7,22.0,29.75,SW,225,2.0,2.5,67,0.00,,,0.00,WUHU216HW,2013-02-04 13:28:00,
2013-02-04 06:29:00,31.7,22.3,29.75,WSW,248,1.3,2.5,68,0.00,,,0.00,WUHU216HW,2013-02-04 13:29:00,
2013-02-04 06:32:00,31.9,22.5,29.75,WSW,248,1.1,2.5,68,0.00,,,0.00,WUHU216HW,2013-02-04 13:32:00,
2013-02-04 06:33:00,31.9,22.5,29.75,WSW,248,1.1,2.5,68,0.00,,,0.00,WUHU216HW,2013-02-04 13:33:00,
2013-02-04 06:34:00,32.0,22.7,29.75,West,270,2.0,2.5,68,0.00,,,0.00,WUHU216HW,2013-02-04 13:34:00,
2013-02-04 06:37:00,32.0,22.7,29.75,West,270,2.7,2.7,68,0.00,,,0.00,WUHU216HW,2013-02-04 13:37:00,
2013-02-04 06:39:00,32.0,22.3,29.75,WSW,248,1.8,2.7,67,0.00,,,0.00,WUHU216HW,2013-02-04 13:39:00,
2013-02-04 06:40:00,32.0,22.7,29.75,West,270,2.0,2.7,68,0.00,,,0.00,WUHU216HW,2013-02-04 13:40:00,
2013-02-04 06:42:00,32.0,22.7,29.75,West,270,2.0,2.7,68,0.00,,,0.00,WUHU216HW,2013-02-04 13:42:00,
2013-02-04 06:44:00,32.0,22.7,29.75,SSW,203,0.0,2.7,68,0.00,,,0.00,WUHU216HW,2013-02-04 13:44:00,
2013-02-04 06:45:00,32.0,22.7,29.75,WSW,248,0.2,2.7,68,0.00,,,0.00,WUHU216HW,2013-02-04 13:45:00,
2013-02-04 06:47:00,32.0,22.7,29.75,WSW,248,1.6,2.0,68,0.00,,,0.00,WUHU216HW,2013-02-04 13:47:00,
2013-02-04 06:49:00,32.2,22.9,29.75,SSW,203,2.0,2.0,68,0.00,,,0.00,WUHU216HW,2013-02-04 13:49:00,
2013-02-04 06:50:00,32.2,22.9,29.75,SW,225,1.1,2.0,68,0.00,,,0.00,WUHU216HW,2013-02-04 13:50:00,
2013-02-04 06:52:00,32.0,22.7,29.75,SW,225,2.7,2.7,68,0.00,,,0.00,WUHU216HW,2013-02-04 13:52:00,
2013-02-04 06:54:00,32.0,22.7,29.75,SW,225,2.7,2.7,68,0.00,,,0.00,WUHU216HW,2013-02-04 13:54:00,
2013-02-04 06:56:00,32.2,22.9,29.75,SW,225,1.1,2.7,68,0.00,,,0.00,WUHU216HW,2013-02-04 13:56:00,
2013-02-04 06:57:00,32.0,22.7,29.75,SSW,203,1.3,2.7,68,0.00,,,0.00,WUHU216HW,2013-02-04 13:57:00,
2013-02-04 06:59:00,32.2,22.9,29.75,SSW,203,0.2,2.7,68,0.00,,,0.00,WUHU216HW,2013-02-04 13:59:00,
2013-02-04 07:01:00,32.2,22.9,29.75,SW,225,0.7,2.7,68,0.00,,,0.00,WUHU216HW,2013-02-04 14:01:00,
2013-02-04 07:02:00,32.2,22.9,29.75,SSW,203,0.2,2.7,68,0.00,,,0.00,WUHU216HW,2013-02-04 14:02:00,
2013-02-04 07:03:00,32.2,22.9,29.75,South,180,0.4,2.7,68,0.00,,,0.00,WUHU216HW,2013-02-04 14:03:00,
2013-02-04 07:04:00,32.2,22.9,29.75,NE,45,0.4,1.6,68,0.00,,,0.00,WUHU216HW,2013-02-04 14:04:00,
2013-02-04 07:06:00,32.2,22.9,29.75,SSW,203,0.4,1.6,68,0.00,,,0.00,WUHU216HW,2013-02-04 14:06:00,
2013-02-04 07:07:00,32.2,22.9,29.75,South,180,0.4,0.7,68,0.00,,,0.00,WUHU216HW,2013-02-04 14:07:00,
2013-02-04 07:08:00,32.2,22.9,29.75,South,180,0.4,0.7,68,0.00,,,0.00,WUHU216HW,2013-02-04 14:08:00,
2013-02-04 07:09:00,32.2,22.9,29.75,West,270,0.4,0.7,68,0.00,,,0.00,WUHU216HW,2013-02-04 14:09:00,
2013-02-04 07:11:00,32.2,22.9,29.75,SW,225,0.4,0.4,68,0.00,,,0.00,WUHU216HW,2013-02-04 14:11:00,
2013-02-04 07:12:00,32.2,22.9,29.75,SW,225,2.5,2.5,68,0.00,,,0.00,WUHU216HW,2013-02-04 14:12:00,
2013-02-04 07:13:00,32.2,22.9,29.75,SW,225,2.5,2.5,68,0.00,,,0.00,WUHU216HW,2013-02-04 14:13:00,
2013-02-04 07:14:00,32.2,22.9,29.75,SW,225,2.9,2.9,68,0.00,,,0.00,WUHU216HW,2013-02-04 14:14:00,
2013-02-04 07:16:00,32.2,22.9,29.75,West,270,1.1,3.1,68,0.00,,,0.00,WUHU216HW,2013-02-04 14:16:00,
2013-02-04 07:17:00,32.2,22.9,29.75,West,270,1.1,3.1,68,0.00,,,0.00,WUHU216HW,2013-02-04 14:17:00,
2013-02-04 07:18:00,32.2,22.9,29.75,West,270,1.1,3.1,68,0.00,,,0.00,WUHU216HW,2013-02-04 14:18:00,
2013-02-04 07:20:00,32.4,23.1,29.75,SSW,203,1.8,3.1,68,0.00,,,0.00,WUHU216HW,2013-02-04 14:20:00,
2013-02-04 07:21:00,32.4,23.1,29.75,West,270,2.5,3.1,68,0.00,,,0.00,WUHU216HW,2013-02-04 14:21:00,
2013-02-04 07:23:00,32.4,23.1,29.75,WSW,248,0.9,3.1,68,0.00,,,0.00,WUHU216HW,2013-02-04 14:23:00,
2013-02-04 07:25:00,32.4,23.1,29.75,SW,225,1.8,3.1,68,0.00,,,0.00,WUHU216HW,2013-02-04 14:25:00,
2013-02-04 07:26:00,32.6,23.1,29.75,West,270,1.1,3.1,68,0.00,,,0.00,WUHU216HW,2013-02-04 14:26:00,
2013-02-04 07:28:00,32.6,23.1,29.75,WSW,248,2.0,3.1,68,0.00,,,0.00,WUHU216HW,2013-02-04 14:28:00,
2013-02-04 07:30:00,32.6,23.1,29.75,West,270,1.1,3.1,68,0.00,,,0.00,WUHU216HW,2013-02-04 14:30:00,
2013-02-04 07:31:00,32.6,23.1,29.74,SW,225,2.2,3.1,68,0.00,,,0.00,WUHU216HW,2013-02-04 14:31:00,
2013-02-04 07:33:00,32.6,23.1,29.75,West,270,0.4,3.1,68,0.00,,,0.00,WUHU216HW,2013-02-04 14:33:00,
2013-02-04 07:34:00,32.6,23.1,29.75,WSW,248,2.5,3.1,68,0.00,,,0.00,WUHU216HW,2013-02-04 14:34:00,
2013-02-04 07:35:00,32.6,23.1,29.75,West,270,2.5,2.5,68,0.00,,,0.00,WUHU216HW,2013-02-04 14:35:00,
2013-02-04 07:36:00,32.6,23.1,29.75,WSW,248,0.9,2.5,68,0.00,,,0.00,WUHU216HW,2013-02-04 14:36:00,
2013-02-04 07:38:00,32.6,23.1,29.75,WSW,248,0.9,2.5,68,0.00,,,0.00,WUHU216HW,2013-02-04 14:38:00,
2013-02-04 07:39:00,32.6,23.1,29.75,West,270,1.1,2.5,68,0.00,,,0.00,WUHU216HW,2013-02-04 14:39:00,
2013-02-04 07:40:00,32.6,23.1,29.75,West,270,1.1,2.5,68,0.00,,,0.00,WUHU216HW,2013-02-04 14:40:00,
2013-02-04 07:41:00,32.6,23.1,29.75,WSW,248,1.1,2.5,68,0.00,,,0.00,WUHU216HW,2013-02-04 14:41:00,
2013-02-04 07:43:00,32.6,23.1,29.74,West,270,2.5,2.5,68,0.00,,,0.00,WUHU216HW,2013-02-04 14:43:00,
2013-02-04 07:44:00,32.6,23.1,29.75,West,270,2.5,2.5,68,0.00,,,0.00,WUHU216HW,2013-02-04 14:44:00,
2013-02-04 07:45:00,32.6,23.1,29.75,West,270,2.5,2.5,68,0.00,,,0.00,WUHU216HW,2013-02-04 14:45:00,
2013-02-04 07:46:00,32.8,23.3,29.74,WSW,248,1.6,2.5,68,0.00,,,0.00,WUHU216HW,2013-02-04 14:46:00,
2013-02-04 07:48:00,32.8,23.3,29.75,North,0,1.3,2.5,68,0.00,,,0.00,WUHU216HW,2013-02-04 14:48:00,
2013-02-04 07:49:00,32.8,23.3,29.75,SW,225,0.2,2.5,68,0.00,,,0.00,WUHU216HW,2013-02-04 14:49:00,
2013-02-04 07:50:00,32.8,23.3,29.75,SW,225,0.2,2.5,68,0.00,,,0.00,WUHU216HW,2013-02-04 14:50:00,
2013-02-04 07:52:00,32.8,23.3,29.75,SW,225,1.8,2.5,68,0.00,,,0.00,WUHU216HW,2013-02-04 14:52:00,
2013-02-04 07:54:00,32.8,23.3,29.75,WSW,248,1.1,2.5,68,0.00,,,0.00,WUHU216HW,2013-02-04 14:54:00,
2013-02-04 07:55:00,32.8,23.3,29.75,WSW,248,1.1,2.0,68,0.00,,,0.00,WUHU216HW,2013-02-04 14:55:00,
2013-02-04 07:57:00,32.8,23.3,29.74,WSW,248,1.1,2.0,68,0.00,,,0.00,WUHU216HW,2013-02-04 14:57:00,
2013-02-04 07:59:00,32.9,23.5,29.74,SW,225,1.6,2.7,68,0.00,,,0.00,WUHU216HW,2013-02-04 14:59:00,
2013-02-04 08:00:00,32.9,23.5,29.74,WSW,248,2.2,2.7,68,0.00,,,0.00,WUHU216HW,2013-02-04 15:00:00,
2013-02-04 08:02:00,32.9,23.5,29.74,WSW,248,2.0,2.7,68,0.00,,,0.00,WUHU216HW,2013-02-04 15:02:00,
2013-02-04 08:04:00,32.9,23.1,29.75,SW,225,2.2,2.7,67,0.00,,,0.00,WUHU216HW,2013-02-04 15:04:00,
2013-02-04 08:06:00,32.9,23.1,29.75,WSW,248,1.8,2.7,67,0.00,,,0.00,WUHU216HW,2013-02-04 15:06:00,
2013-02-04 08:07:00,33.1,23.3,29.75,WSW,248,2.0,2.7,67,0.00,,,0.00,WUHU216HW,2013-02-04 15:07:00,
2013-02-04 08:09:00,32.9,23.1,29.75,West,270,2.7,2.7,67,0.00,,,0.00,WUHU216HW,2013-02-04 15:09:00,
2013-02-04 08:10:00,32.9,23.1,29.75,West,270,2.7,2.7,67,0.00,,,0.00,WUHU216HW,2013-02-04 15:10:00,
2013-02-04 08:11:00,32.9,23.1,29.75,WNW,293,0.4,2.7,67,0.00,,,0.00,WUHU216HW,2013-02-04 15:11:00,
2013-02-04 08:12:00,33.1,23.3,29.75,West,270,0.4,2.7,67,0.00,,,0.00,WUHU216HW,2013-02-04 15:12:00,
2013-02-04 08:15:00,33.1,23.3,29.75,WSW,248,2.7,2.7,67,0.00,,,0.00,WUHU216HW,2013-02-04 15:15:00,
2013-02-04 08:16:00,33.1,23.3,29.75,SW,225,0.4,2.7,67,0.00,,,0.00,WUHU216HW,2013-02-04 15:16:00,
2013-02-04 08:17:00,33.1,23.3,29.75,SSW,203,2.5,2.7,67,0.00,,,0.00,WUHU216HW,2013-02-04 15:17:00,
2013-02-04 08:20:00,33.1,23.3,29.75,SW,225,2.0,2.7,67,0.00,,,0.00,WUHU216HW,2013-02-04 15:20:00,
2013-02-04 08:21:00,33.1,23.3,29.75,WSW,248,0.7,2.7,67,0.00,,,0.00,WUHU216HW,2013-02-04 15:21:00,
2013-02-04 08:22:00,33.1,23.3,29.75,SE,135,0.7,2.7,67,0.00,,,0.00,WUHU216HW,2013-02-04 15:22:00,
2013-02-04 08:25:00,33.1,23.3,29.75,SSE,158,0.4,2.5,67,0.00,,,0.00,WUHU216HW,2013-02-04 15:25:00,
2013-02-04 08:26:00,33.1,23.3,29.75,SSE,158,0.0,2.5,67,0.00,,,0.00,WUHU216HW,2013-02-04 15:26:00,
2013-02-04 08:27:00,33.1,23.3,29.75,SE,135,0.9,2.0,67,0.00,,,0.00,WUHU216HW,2013-02-04 15:27:00,
2013-02-04 08:30:00,33.1,23.3,29.75,SSE,158,0.4,0.9,67,0.00,,,0.00,WUHU216HW,2013-02-04 15:30:00,
2013-02-04 08:31:00,33.3,23.5,29.75,SSE,158,0.7,0.9,67,0.00,,,0.00,WUHU216HW,2013-02-04 15:31:00,
2013-02-04 08:32:00,33.3,23.5,29.75,SSE,158,2.0,2.0,67,0.00,,,0.00,WUHU216HW,2013-02-04 15:32:00,
2013-02-04 08:35:00,33.3,23.5,29.75,South,180,0.4,2.0,67,0.00,,,0.00,WUHU216HW,2013-02-04 15:35:00,
2013-02-04 08:36:00,33.3,23.5,29.75,South,180,0.4,2.0,67,0.00,,,0.00,WUHU216HW,2013-02-04 15:36:00,
2013-02-04 08:37:00,33.3,23.5,29.75,SSE,158,1.1,2.0,67,0.00,,,0.00,WUHU216HW,2013-02-04 15:37:00,
2013-02-04 08:40:00,33.5,23.6,29.75,SSE,158,0.7,2.0,67,0.00,,,0.00,WUHU216HW,2013-02-04 15:40:00,
2013-02-04 08:41:00,33.5,23.6,29.75,SSE,158,0.7,2.0,67,0.00,,,0.00,WUHU216HW,2013-02-04 15:41:00,
2013-02-04 08:42:00,33.3,23.5,29.75,SSE,158,0.9,2.0,67,0.00,,,0.00,WUHU216HW,2013-02-04 15:42:00,
2013-02-04 08:45:00,33.5,23.6,29.75,South,180,1.1,1.6,67,0.00,,,0.00,WUHU216HW,2013-02-04 15:45:00,
2013-02-04 08:46:00,33.5,23.6,29.75,SSE,158,0.4,1.6,67,0.00,,,0.00,WUHU216HW,2013-02-04 15:46:00,
2013-02-04 08:47:00,33.5,23.6,29.75,SSE,158,0.0,1.6,67,0.00,,,0.00,WUHU216HW,2013-02-04 15:47:00,
2013-02-04 08:50:00,33.5,23.6,29.75,SW,225,1.6,1.6,67,0.00,,,0.00,WUHU216HW,2013-02-04 15:50:00,
2013-02-04 08:51:00,33.5,23.6,29.75,SW,225,1.6,1.6,67,0.00,,,0.00,WUHU216HW,2013-02-04 15:51:00,
2013-02-04 08:52:00,33.5,23.6,29.75,SW,225,3.8,3.8,67,0.00,,,0.00,WUHU216HW,2013-02-04 15:52:00,
2013-02-04 08:53:00,33.5,23.6,29.75,SSW,203,2.7,3.8,67,0.00,,,0.00,WUHU216HW,2013-02-04 15:53:00,
2013-02-04 08:55:00,33.7,23.8,29.75,West,270,1.6,3.8,67,0.00,,,0.00,WUHU216HW,2013-02-04 15:55:00,
2013-02-04 08:56:00,33.7,23.8,29.75,West,270,1.6,3.8,67,0.00,,,0.00,WUHU216HW,2013-02-04 15:56:00,
2013-02-04 08:57:00,33.7,23.8,29.75,SW,225,2.0,3.8,67,0.00,,,0.00,WUHU216HW,2013-02-04 15:57:00,
2013-02-04 08:58:00,33.7,23.8,29.75,SW,225,1.8,3.8,67,0.00,,,0.00,WUHU216HW,2013-02-04 15:58:00,
2013-02-04 09:00:00,33.7,23.8,29.75,WSW,248,1.1,3.8,67,0.00,,,0.00,WUHU216HW,2013-02-04 16:00:00,
2013-02-04 09:01:00,33.7,23.8,29.75,WSW,248,1.3,3.8,67,0.00,,,0.00,WUHU216HW,2013-02-04 16:01:00,
2013-02-04 09:02:00,33.7,23.8,29.75,WSW,248,1.3,3.1,67,0.00,,,0.00,WUHU216HW,2013-02-04 16:02:00,
2013-02-04 09:03:00,33.8,23.9,29.75,SW,225,1.1,3.1,67,0.00,,,0.00,WUHU216HW,2013-02-04 16:03:00,
2013-02-04 09:05:00,33.8,23.9,29.75,SSW,203,1.1,2.0,67,0.00,,,0.00,WUHU216HW,2013-02-04 16:05:00,
2013-02-04 09:06:00,33.8,23.9,29.75,SSW,203,1.1,2.0,67,0.00,,,0.00,WUHU216HW,2013-02-04 16:06:00,
2013-02-04 09:07:00,34.0,24.1,29.75,SSW,203,4.0,4.0,67,0.00,,,0.00,WUHU216HW,2013-02-04 16:07:00,
2013-02-04 09:08:00,34.0,24.1,29.75,SSW,203,3.4,4.0,67,0.00,,,0.00,WUHU216HW,2013-02-04 16:08:00,
2013-02-04 09:11:00,34.0,24.1,29.75,WSW,248,2.5,4.0,67,0.00,,,0.00,WUHU216HW,2013-02-04 16:11:00,
2013-02-04 09:13:00,34.2,24.3,29.75,West,270,2.0,4.0,67,0.00,,,0.00,WUHU216HW,2013-02-04 16:13:00,
2013-02-04 09:16:00,34.2,24.3,29.75,SW,225,2.0,4.0,67,0.00,,,0.00,WUHU216HW,2013-02-04 16:16:00,
2013-02-04 09:18:00,34.4,24.5,29.74,WSW,248,2.0,3.4,67,0.00,,,0.00,WUHU216HW,2013-02-04 16:18:00,
2013-02-04 09:21:00,34.4,24.5,29.74,SSW,203,2.0,3.4,67,0.00,,,0.00,WUHU216HW,2013-02-04 16:21:00,
2013-02-04 09:23:00,34.6,24.3,29.74,West,270,4.0,4.0,66,0.00,,,0.00,WUHU216HW,2013-02-04 16:23:00,
2013-02-04 09:26:00,34.6,24.3,29.74,WSW,248,1.3,4.0,66,0.00,,,0.00,WUHU216HW,2013-02-04 16:26:00,
2013-02-04 09:28:00,34.6,24.3,29.74,SW,225,2.5,4.0,66,0.00,,,0.00,WUHU216HW,2013-02-04 16:28:00,
2013-02-04 09:31:00,34.7,24.5,29.74,WSW,248,4.5,4.5,66,0.00,,,0.00,WUHU216HW,2013-02-04 16:31:00,
2013-02-04 09:33:00,34.9,24.7,29.74,WSW,248,3.6,4.5,66,0.00,,,0.00,WUHU216HW,2013-02-04 16:33:00,
2013-02-04 09:37:00,35.1,24.8,29.74,SW,225,5.4,5.4,66,0.00,,,0.00,WUHU216HW,2013-02-04 16:37:00,
2013-02-04 09:38:00,35.1,24.8,29.74,SW,225,2.9,5.4,66,0.00,,,0.00,WUHU216HW,2013-02-04 16:38:00,
2013-02-04 09:39:00,35.1,24.8,29.74,WSW,248,1.3,5.4,66,0.00,,,0.00,WUHU216HW,2013-02-04 16:39:00,
2013-02-04 09:42:00,35.3,25.0,29.74,SSW,203,2.5,5.4,66,0.00,,,0.00,WUHU216HW,2013-02-04 16:42:00,
2013-02-04 09:43:00,35.3,25.0,29.74,WSW,248,2.7,5.4,66,0.00,,,0.00,WUHU216HW,2013-02-04 16:43:00,
2013-02-04 09:44:00,35.5,25.2,29.74,West,270,2.5,5.4,66,0.00,,,0.00,WUHU216HW,2013-02-04 16:44:00,
2013-02-04 09:47:00,35.6,25.4,29.74,WSW,248,2.7,5.1,66,0.00,,,0.00,WUHU216HW,2013-02-04 16:47:00,
2013-02-04 09:48:00,35.6,25.4,29.74,West,270,4.7,5.1,66,0.00,,,0.00,WUHU216HW,2013-02-04 16:48:00,
2013-02-04 09:49:00,35.8,25.6,29.74,WSW,248,3.4,5.1,66,0.00,,,0.00,WUHU216HW,2013-02-04 16:49:00,
2013-02-04 09:52:00,36.0,25.4,29.74,WSW,248,1.8,5.1,65,0.00,,,0.00,WUHU216HW,2013-02-04 16:52:00,
2013-02-04 09:53:00,36.0,25.4,29.74,West,270,4.9,5.1,65,0.00,,,0.00,WUHU216HW,2013-02-04 16:53:00,
2013-02-04 09:54:00,36.0,25.4,29.74,West,270,4.9,5.1,65,0.00,,,0.00,WUHU216HW,2013-02-04 16:54:00,
2013-02-04 09:57:00,36.4,25.8,29.74,West,270,4.0,4.9,65,0.00,,,0.00,WUHU216HW,2013-02-04 16:57:00,
2013-02-04 09:59:00,36.4,25.8,29.74,WSW,248,2.5,4.9,65,0.00,,,0.00,WUHU216HW,2013-02-04 16:59:00,
2013-02-04 10:00:00,36.5,25.5,29.74,West,270,4.3,4.9,64,0.00,,,0.00,WUHU216HW,2013-02-04 17:00:00,
2013-02-04 10:02:00,36.7,25.7,29.74,WSW,248,4.0,4.9,64,0.00,,,0.00,WUHU216HW,2013-02-04 17:02:00,
2013-02-04 10:04:00,36.7,25.7,29.73,West,270,4.3,5.4,64,0.00,,,0.00,WUHU216HW,2013-02-04 17:04:00,
2013-02-04 10:05:00,36.9,25.8,29.73,West,270,4.0,5.4,64,0.00,,,0.00,WUHU216HW,2013-02-04 17:05:00,
2013-02-04 10:07:00,37.1,25.7,29.73,West,270,4.3,5.4,63,0.00,,,0.00,WUHU216HW,2013-02-04 17:07:00,
2013-02-04 10:09:00,37.1,25.7,29.73,SW,225,3.4,5.4,63,0.00,,,0.00,WUHU216HW,2013-02-04 17:09:00,
2013-02-04 10:10:00,37.1,25.7,29.73,SW,225,3.4,5.4,63,0.00,,,0.00,WUHU216HW,2013-02-04 17:10:00,
2013-02-04 10:13:00,37.4,26.0,29.73,West,270,4.7,5.4,63,0.00,,,0.00,WUHU216HW,2013-02-04 17:13:00,
2013-02-04 10:14:00,37.4,26.0,29.73,West,270,4.7,4.9,63,0.00,,,0.00,WUHU216HW,2013-02-04 17:14:00,
2013-02-04 10:15:00,37.4,26.0,29.73,West,270,4.7,4.9,63,0.00,,,0.00,WUHU216HW,2013-02-04 17:15:00,
2013-02-04 10:18:00,37.8,26.3,29.73,West,270,3.4,5.4,63,0.00,,,0.00,WUHU216HW,2013-02-04 17:18:00,
2013-02-04 10:19:00,38.0,26.5,29.73,WSW,248,3.4,5.4,63,0.00,,,0.00,WUHU216HW,2013-02-04 17:19:00,
2013-02-04 10:20:00,38.0,26.5,29.73,WSW,248,3.4,5.4,63,0.00,,,0.00,WUHU216HW,2013-02-04 17:20:00,
2013-02-04 10:23:00,38.2,26.7,29.73,WNW,293,0.9,5.4,63,0.00,,,0.00,WUHU216HW,2013-02-04 17:23:00,
2013-02-04 10:24:00,38.2,26.7,29.73,West,270,2.9,5.4,63,0.00,,,0.00,WUHU216HW,2013-02-04 17:24:00,
2013-02-04 10:25:00,38.2,26.7,29.73,WSW,248,2.7,5.4,63,0.00,,,0.00,WUHU216HW,2013-02-04 17:25:00,
2013-02-04 10:28:00,38.3,26.4,29.73,West,270,3.1,3.4,62,0.00,,,0.00,WUHU216HW,2013-02-04 17:28:00,
2013-02-04 10:29:00,38.5,26.6,29.73,WSW,248,1.8,3.4,62,0.00,,,0.00,WUHU216HW,2013-02-04 17:29:00,
2013-02-04 10:30:00,38.5,26.6,29.73,SW,225,1.3,3.4,62,0.00,,,0.00,WUHU216HW,2013-02-04 17:30:00,
2013-02-04 10:33:00,38.5,26.6,29.73,SW,225,2.0,3.4,62,0.00,,,0.00,WUHU216HW,2013-02-04 17:33:00,
2013-02-04 10:34:00,38.5,26.6,29.73,WSW,248,3.8,4.9,62,0.00,,,0.00,WUHU216HW,2013-02-04 17:34:00,
2013-02-04 10:35:00,38.5,26.6,29.73,SSW,203,3.4,4.9,62,0.00,,,0.00,WUHU216HW,2013-02-04 17:35:00,
2013-02-04 10:36:00,38.5,26.6,29.73,SSW,203,3.4,4.9,62,0.00,,,0.00,WUHU216HW,2013-02-04 17:36:00,
2013-02-04 10:38:00,38.5,26.6,29.73,West,270,3.1,4.9,62,0.00,,,0.00,WUHU216HW,2013-02-04 17:38:00,
2013-02-04 10:39:00,38.5,26.6,29.73,SW,225,4.0,4.9,62,0.00,,,0.00,WUHU216HW,2013-02-04 17:39:00,
2013-02-04 10:40:00,38.7,26.4,29.73,West,270,4.5,4.9,61,0.00,,,0.00,WUHU216HW,2013-02-04 17:40:00,
2013-02-04 10:41:00,38.7,26.4,29.73,West,270,4.5,4.9,61,0.00,,,0.00,WUHU216HW,2013-02-04 17:41:00,
2013-02-04 10:43:00,38.7,26.4,29.73,SSW,203,4.0,4.9,61,0.00,,,0.00,WUHU216HW,2013-02-04 17:43:00,
2013-02-04 10:44:00,38.7,26.4,29.73,SSW,203,2.5,4.5,61,0.00,,,0.00,WUHU216HW,2013-02-04 17:44:00,
2013-02-04 10:45:00,38.7,26.4,29.73,West,270,5.4,5.4,61,0.00,,,0.00,WUHU216HW,2013-02-04 17:45:00,
2013-02-04 10:46:00,38.7,26.4,29.73,West,270,5.4,5.4,61,0.00,,,0.00,WUHU216HW,2013-02-04 17:46:00,
2013-02-04 10:48:00,38.9,26.6,29.73,SW,225,5.1,5.4,61,0.00,,,0.00,WUHU216HW,2013-02-04 17:48:00,
2013-02-04 10:49:00,38.9,26.6,29.73,SW,225,2.2,5.4,61,0.00,,,0.00,WUHU216HW,2013-02-04 17:49:00,
2013-02-04 10:50:00,39.1,26.6,29.73,SW,225,2.9,5.4,61,0.00,,,0.00,WUHU216HW,2013-02-04 17:50:00,
2013-02-04 10:51:00,39.1,26.6,29.73,SW,225,2.9,5.4,61,0.00,,,0.00,WUHU216HW,2013-02-04 17:51:00,
2013-02-04 10:54:00,39.2,26.5,29.73,West,270,5.1,5.6,60,0.00,,,0.00,WUHU216HW,2013-02-04 17:54:00,
2013-02-04 10:55:00,39.4,26.6,29.73,West,270,1.8,5.6,60,0.00,,,0.00,WUHU216HW,2013-02-04 17:55:00,
2013-02-04 10:56:00,39.4,26.6,29.73,West,270,1.8,5.6,60,0.00,,,0.00,WUHU216HW,2013-02-04 17:56:00,
2013-02-04 10:58:00,40.0,27.2,29.73,WSW,248,4.3,5.6,60,0.00,,,0.00,WUHU216HW,2013-02-04 17:58:00,
2013-02-04 10:59:00,40.0,27.2,29.73,SW,225,6.3,6.3,60,0.00,,,0.00,WUHU216HW,2013-02-04 17:59:00,
2013-02-04 11:00:00,40.0,27.2,29.73,WSW,248,2.5,6.3,60,0.00,,,0.00,WUHU216HW,2013-02-04 18:00:00,
2013-02-04 11:01:00,40.0,27.2,29.73,SW,225,4.0,6.3,60,0.00,,,0.00,WUHU216HW,2013-02-04 18:01:00,
2013-02-04 11:04:00,40.3,27.1,29.73,SW,225,5.8,6.3,59,0.00,,,0.00,WUHU216HW,2013-02-04 18:04:00,
2013-02-04 11:05:00,40.5,27.3,29.73,West,270,4.7,6.3,59,0.00,,,0.00,WUHU216HW,2013-02-04 18:05:00,
2013-02-04 11:06:00,40.7,27.5,29.73,SSW,203,4.7,6.3,59,0.00,,,0.00,WUHU216HW,2013-02-04 18:06:00,
2013-02-04 11:09:00,40.9,27.2,29.73,WSW,248,2.5,6.3,58,0.00,,,0.00,WUHU216HW,2013-02-04 18:09:00,
2013-02-04 11:10:00,41.0,27.4,29.73,West,270,1.1,5.8,58,0.00,,,0.00,WUHU216HW,2013-02-04 18:10:00,
2013-02-04 11:11:00,41.0,27.4,29.73,West,270,1.1,5.8,58,0.00,,,0.00,WUHU216HW,2013-02-04 18:11:00,
2013-02-04 11:14:00,41.4,27.3,29.72,SSW,203,2.9,4.7,57,0.00,,,0.00,WUHU216HW,2013-02-04 18:14:00,
2013-02-04 11:15:00,41.4,27.3,29.72,SSW,203,2.9,4.7,57,0.00,,,0.00,WUHU216HW,2013-02-04 18:15:00,
2013-02-04 11:16:00,41.4,27.3,29.72,West,270,1.1,3.8,57,0.00,,,0.00,WUHU216HW,2013-02-04 18:16:00,
2013-02-04 11:19:00,41.8,27.5,29.72,NNW,338,1.1,2.9,57,0.00,,,0.00,WUHU216HW,2013-02-04 18:19:00,
2013-02-04 11:20:00,41.8,27.5,29.72,North,0,0.2,2.9,57,0.00,,,0.00,WUHU216HW,2013-02-04 18:20:00,
2013-02-04 11:21:00,41.9,27.3,29.72,WNW,293,1.8,2.9,56,0.00,,,0.00,WUHU216HW,2013-02-04 18:21:00,
2013-02-04 11:25:00,42.3,27.6,29.72,WNW,293,0.4,3.8,56,0.00,,,0.00,WUHU216HW,2013-02-04 18:25:00,
2013-02-04 11:26:00,42.5,27.4,29.72,North,0,2.0,3.8,55,0.00,,,0.00,WUHU216HW,2013-02-04 18:26:00,
2013-02-04 11:30:00,42.8,26.8,29.72,NW,315,4.7,4.7,53,0.00,,,0.00,WUHU216HW,2013-02-04 18:30:00,
2013-02-04 11:31:00,43.6,25.7,29.72,NNE,23,6.5,6.5,49,0.00,,,0.00,WUHU216HW,2013-02-04 18:31:00,
2013-02-04 11:35:00,45.9,26.7,29.72,WSW,248,3.8,6.5,47,0.00,,,0.00,WUHU216HW,2013-02-04 18:35:00,
2013-02-04 11:36:00,45.9,26.7,29.72,WSW,248,3.8,6.5,47,0.00,,,0.00,WUHU216HW,2013-02-04 18:36:00,
2013-02-04 11:37:00,46.4,27.2,29.72,North,0,5.8,6.5,47,0.00,,,0.00,WUHU216HW,2013-02-04 18:37:00,
2013-02-04 11:40:00,47.0,27.6,29.72,WNW,293,2.9,6.5,47,0.00,,,0.00,WUHU216HW,2013-02-04 18:40:00,
2013-02-04 11:41:00,47.0,27.6,29.72,WNW,293,2.9,5.8,47,0.00,,,0.00,WUHU216HW,2013-02-04 18:41:00,
2013-02-04 11:42:00,47.2,24.0,29.72,North,0,5.4,6.5,40,0.00,,,0.00,WUHU216HW,2013-02-04 18:42:00,
2013-02-04 11:45:00,47.9,24.7,29.71,NNW,338,7.6,8.1,40,0.00,,,0.00,WUHU216HW,2013-02-04 18:45:00,
2013-02-04 11:46:00,47.9,25.2,29.71,NNE,23,4.5,8.1,41,0.00,,,0.00,WUHU216HW,2013-02-04 18:46:00,
2013-02-04 11:47:00,48.1,24.2,29.71,North,0,8.3,8.3,39,0.00,,,0.00,WUHU216HW,2013-02-04 18:47:00,
2013-02-04 11:50:00,48.4,25.2,29.71,NNW,338,6.3,8.3,40,0.00,,,0.00,WUHU216HW,2013-02-04 18:50:00,
2013-02-04 11:51:00,48.4,23.9,29.71,NW,315,6.9,8.3,38,0.00,,,0.00,WUHU216HW,2013-02-04 18:51:00,
2013-02-04 11:52:00,48.6,24.0,29.71,NNE,23,10.5,10.5,38,0.00,,,0.00,WUHU216HW,2013-02-04 18:52:00,
2013-02-04 11:55:00,49.0,24.3,29.71,NNW,338,5.8,10.7,38,0.00,,,0.00,WUHU216HW,2013-02-04 18:55:00,
2013-02-04 11:56:00,49.0,24.3,29.71,NNE,23,4.5,10.7,38,0.00,,,0.00,WUHU216HW,2013-02-04 18:56:00,
2013-02-04 11:58:00,49.0,24.3,29.71,SE,135,8.1,10.7,38,0.00,,,0.00,WUHU216HW,2013-02-04 18:58:00,
2013-02-04 12:00:00,49.1,23.8,29.71,NNW,338,8.9,13.9,37,0.00,,,0.00,WUHU216HW,2013-02-04 19:00:00,
2013-02-04 12:01:00,49.3,23.9,29.71,NW,315,15.7,15.7,37,0.00,,,0.00,WUHU216HW,2013-02-04 19:01:00,
2013-02-04 12:03:00,49.3,23.9,29.71,North,0,13.9,15.7,37,0.00,,,0.00,WUHU216HW,2013-02-04 19:03:00,
2013-02-04 12:06:00,49.7,24.9,29.71,North,0,5.4,15.7,38,0.00,,,0.00,WUHU216HW,2013-02-04 19:06:00,
2013-02-04 12:08:00,49.9,23.8,29.71,North,0,9.6,15.7,36,0.00,,,0.00,WUHU216HW,2013-02-04 19:08:00,
2013-02-04 12:11:00,50.0,24.0,29.70,NNE,23,7.6,15.7,36,0.00,,,0.00,WUHU216HW,2013-02-04 19:11:00,
2013-02-04 12:12:00,50.0,24.0,29.70,NNW,338,8.5,13.9,36,0.00,,,0.00,WUHU216HW,2013-02-04 19:12:00,
2013-02-04 12:13:00,50.2,24.0,29.70,NNW,338,6.3,11.4,36,0.00,,,0.00,WUHU216HW,2013-02-04 19:13:00,
2013-02-04 12:16:00,50.2,24.8,29.71,NNW,338,4.9,11.4,37,0.00,,,0.00,WUHU216HW,2013-02-04 19:16:00,
2013-02-04 12:17:00,50.4,24.9,29.71,NNW,338,7.2,11.4,37,0.00,,,0.00,WUHU216HW,2013-02-04 19:17:00,
2013-02-04 12:18:00,50.6,24.4,29.71,North,0,11.4,11.4,36,0.00,,,0.00,WUHU216HW,2013-02-04 19:18:00,
2013-02-04 12:21:00,50.8,24.6,29.71,North,0,8.5,11.4,36,0.00,,,0.00,WUHU216HW,2013-02-04 19:21:00,
2013-02-04 12:22:00,50.8,24.6,29.71,North,0,7.4,11.4,36,0.00,,,0.00,WUHU216HW,2013-02-04 19:22:00,
2013-02-04 12:23:00,51.1,24.8,29.71,NNW,338,6.9,11.4,36,0.00,,,0.00,WUHU216HW,2013-02-04 19:23:00,
2013-02-04 12:26:00,51.1,24.8,29.71,North,0,5.6,11.4,36,0.00,,,0.00,WUHU216HW,2013-02-04 19:26:00,
2013-02-04 12:27:00,51.1,24.8,29.71,NW,315,6.7,11.4,36,0.00,,,0.00,WUHU216HW,2013-02-04 19:27:00,
2013-02-04 12:28:00,51.3,25.0,29.71,NW,315,4.7,11.0,36,0.00,,,0.00,WUHU216HW,2013-02-04 19:28:00,
2013-02-04 12:31:00,51.3,25.0,29.71,North,0,12.1,12.1,36,0.00,,,0.00,WUHU216HW,2013-02-04 19:31:00,
2013-02-04 12:32:00,51.3,23.7,29.71,NW,315,8.1,12.1,34,0.00,,,0.00,WUHU216HW,2013-02-04 19:32:00,
2013-02-04 12:33:00,51.3,23.7,29.70,NNE,23,7.6,12.1,34,0.00,,,0.00,WUHU216HW,2013-02-04 19:33:00,
2013-02-04 12:36:00,51.1,24.2,29.70,WNW,293,6.3,12.1,35,0.00,,,0.00,WUHU216HW,2013-02-04 19:36:00,
2013-02-04 12:37:00,51.3,25.0,29.71,North,0,10.5,12.1,36,0.00,,,0.00,WUHU216HW,2013-02-04 19:37:00,
2013-02-04 12:39:00,51.1,23.5,29.71,North,0,6.9,12.1,34,0.00,,,0.00,WUHU216HW,2013-02-04 19:39:00,
2013-02-04 12:41:00,51.1,24.8,29.71,NNW,338,5.6,10.5,36,0.00,,,0.00,WUHU216HW,2013-02-04 19:41:00,
2013-02-04 12:42:00,51.1,24.2,29.71,NNW,338,5.1,10.5,35,0.00,,,0.00,WUHU216HW,2013-02-04 19:42:00,
2013-02-04 12:44:00,51.1,24.8,29.71,NW,315,6.0,10.5,36,0.00,,,0.00,WUHU216HW,2013-02-04 19:44:00,
2013-02-04 12:46:00,50.9,25.4,29.71,North,0,2.5,10.5,37,0.00,,,0.00,WUHU216HW,2013-02-04 19:46:00,
2013-02-04 12:47:00,50.8,25.2,29.71,North,0,2.5,6.9,37,0.00,,,0.00,WUHU216HW,2013-02-04 19:47:00,
2013-02-04 12:49:00,50.8,24.6,29.71,NNE,23,8.1,8.1,36,0.00,,,0.00,WUHU216HW,2013-02-04 19:49:00,
2013-02-04 12:51:00,50.8,24.6,29.71,NNE,23,6.9,8.3,36,0.00,,,0.00,WUHU216HW,2013-02-04 19:51:00,
2013-02-04 12:52:00,50.8,24.6,29.71,North,0,3.8,8.3,36,0.00,,,0.00,WUHU216HW,2013-02-04 19:52:00,
2013-02-04 12:54:00,50.6,24.4,29.71,NNE,23,6.3,8.3,36,0.00,,,0.00,WUHU216HW,2013-02-04 19:54:00,
2013-02-04 12:56:00,50.6,25.1,29.71,NNE,23,4.3,8.3,37,0.00,,,0.00,WUHU216HW,2013-02-04 19:56:00,
2013-02-04 12:57:00,50.6,25.1,29.71,NNE,23,4.7,8.3,37,0.00,,,0.00,WUHU216HW,2013-02-04 19:57:00,
2013-02-04 12:59:00,50.4,24.9,29.71,NNW,338,7.8,8.1,37,0.00,,,0.00,WUHU216HW,2013-02-04 19:59:00,
2013-02-04 13:02:00,50.4,24.2,29.71,NNW,338,8.9,10.5,36,0.00,,,0.00,WUHU216HW,2013-02-04 20:02:00,
2013-02-04 13:03:00,50.2,24.8,29.71,North,0,5.4,10.5,37,0.00,,,0.00,WUHU216HW,2013-02-04 20:03:00,
2013-02-04 13:04:00,50.2,24.8,29.71,North,0,6.7,10.5,37,0.00,,,0.00,WUHU216HW,2013-02-04 20:04:00,
2013-02-04 13:07:00,50.2,24.8,29.71,NNE,23,7.6,10.5,37,0.00,,,0.00,WUHU216HW,2013-02-04 20:07:00,
2013-02-04 13:08:00,50.2,24.8,29.71,NNE,23,7.6,10.5,37,0.00,,,0.00,WUHU216HW,2013-02-04 20:08:00,
2013-02-04 13:09:00,50.0,24.6,29.71,NNE,23,6.3,11.0,37,0.00,,,0.00,WUHU216HW,2013-02-04 20:09:00,
2013-02-04 13:12:00,50.2,24.8,29.71,NE,45,6.9,11.0,37,0.00,,,0.00,WUHU216HW,2013-02-04 20:12:00,
2013-02-04 13:13:00,50.2,24.8,29.71,North,0,8.5,11.0,37,0.00,,,0.00,WUHU216HW,2013-02-04 20:13:00,
2013-02-04 13:14:00,50.0,24.6,29.71,NNE,23,4.9,11.0,37,0.00,,,0.00,WUHU216HW,2013-02-04 20:14:00,
2013-02-04 13:17:00,50.0,25.3,29.70,NNE,23,3.6,11.0,38,0.00,,,0.00,WUHU216HW,2013-02-04 20:17:00,
2013-02-04 13:18:00,50.0,25.3,29.70,North,0,2.9,8.5,38,0.00,,,0.00,WUHU216HW,2013-02-04 20:18:00,
2013-02-04 13:20:00,50.0,25.3,29.70,NNE,23,5.8,8.5,38,0.00,,,0.00,WUHU216HW,2013-02-04 20:20:00,
2013-02-04 13:22:00,50.0,24.6,29.70,North,0,4.7,9.8,37,0.00,,,0.00,WUHU216HW,2013-02-04 20:22:00,
2013-02-04 13:23:00,50.0,25.3,29.70,North,0,5.4,9.8,38,0.00,,,0.00,WUHU216HW,2013-02-04 20:23:00,
2013-02-04 13:24:00,50.0,25.3,29.70,North,0,5.4,9.8,38,0.00,,,0.00,WUHU216HW,2013-02-04 20:24:00,
2013-02-04 13:25:00,50.0,25.3,29.70,NNE,23,4.5,9.8,38,0.00,,,0.00,WUHU216HW,2013-02-04 20:25:00,
2013-02-04 13:27:00,50.0,25.3,29.70,NNE,23,4.5,9.8,38,0.00,,,0.00,WUHU216HW,2013-02-04 20:27:00,
2013-02-04 13:28:00,50.0,25.3,29.70,NNE,23,4.3,9.8,38,0.00,,,0.00,WUHU216HW,2013-02-04 20:28:00,
2013-02-04 13:29:00,50.0,25.3,29.70,NNE,23,4.3,9.8,38,0.00,,,0.00,WUHU216HW,2013-02-04 20:29:00,
2013-02-04 13:30:00,50.0,25.9,29.70,NNE,23,3.8,9.8,39,0.00,,,0.00,WUHU216HW,2013-02-04 20:30:00,
2013-02-04 13:33:00,50.0,25.3,29.70,NE,45,4.5,5.4,38,0.00,,,0.00,WUHU216HW,2013-02-04 20:33:00,
2013-02-04 13:34:00,50.2,25.5,29.70,NE,45,4.0,5.1,38,0.00,,,0.00,WUHU216HW,2013-02-04 20:34:00,
2013-02-04 13:35:00,50.2,25.5,29.70,North,0,7.6,7.6,38,0.00,,,0.00,WUHU216HW,2013-02-04 20:35:00,
2013-02-04 13:38:00,50.4,25.6,29.70,North,0,3.6,7.6,38,0.00,,,0.00,WUHU216HW,2013-02-04 20:38:00,
2013-02-04 13:39:00,50.6,25.7,29.70,North,0,6.0,7.6,38,0.00,,,0.00,WUHU216HW,2013-02-04 20:39:00,
2013-02-04 13:40:00,50.6,25.7,29.70,North,0,2.7,7.6,38,0.00,,,0.00,WUHU216HW,2013-02-04 20:40:00,
2013-02-04 13:43:00,50.8,25.9,29.70,NE,45,6.3,7.6,38,0.00,,,0.00,WUHU216HW,2013-02-04 20:43:00,
2013-02-04 13:44:00,50.8,25.2,29.70,NNE,23,8.1,8.1,37,0.00,,,0.00,WUHU216HW,2013-02-04 20:44:00,
2013-02-04 13:45:00,50.9,25.4,29.70,North,0,6.5,8.1,37,0.00,,,0.00,WUHU216HW,2013-02-04 20:45:00,
2013-02-04 13:48:00,50.9,24.8,29.70,North,0,10.5,10.5,36,0.00,,,0.00,WUHU216HW,2013-02-04 20:48:00,
2013-02-04 13:49:00,50.9,25.4,29.70,NNE,23,8.7,10.5,37,0.00,,,0.00,WUHU216HW,2013-02-04 20:49:00,
2013-02-04 13:51:00,50.8,25.2,29.70,North,0,3.6,10.5,37,0.00,,,0.00,WUHU216HW,2013-02-04 20:51:00,
2013-02-04 13:53:00,50.9,25.4,29.70,NNW,338,4.5,10.5,37,0.00,,,0.00,WUHU216HW,2013-02-04 20:53:00,
2013-02-04 13:54:00,50.8,25.9,29.70,NNW,338,4.9,10.5,38,0.00,,,0.00,WUHU216HW,2013-02-04 20:54:00,
2013-02-04 13:56:00,50.8,25.2,29.70,North,0,4.7,10.5,37,0.00,,,0.00,WUHU216HW,2013-02-04 20:56:00,
2013-02-04 13:58:00,50.9,25.4,29.70,North,0,3.4,5.4,37,0.00,,,0.00,WUHU216HW,2013-02-04 20:58:00,
2013-02-04 13:59:00,50.9,25.4,29.70,North,0,2.7,5.4,37,0.00,,,0.00,WUHU216HW,2013-02-04 20:59:00,
2013-02-04 14:00:00,51.1,26.3,29.70,NNE,23,4.0,5.4,38,0.00,,,0.00,WUHU216HW,2013-02-04 21:00:00,
2013-02-04 14:01:00,51.1,26.3,29.70,North,0,2.0,5.4,38,0.00,,,0.00,WUHU216HW,2013-02-04 21:01:00,
2013-02-04 14:03:00,51.3,26.4,29.69,North,0,2.9,5.4,38,0.00,,,0.00,WUHU216HW,2013-02-04 21:03:00,
2013-02-04 14:04:00,51.3,26.4,29.69,North,0,1.8,5.4,38,0.00,,,0.00,WUHU216HW,2013-02-04 21:04:00,
2013-02-04 14:05:00,51.3,26.4,29.69,North,0,1.8,4.7,38,0.00,,,0.00,WUHU216HW,2013-02-04 21:05:00,
2013-02-04 14:06:00,51.5,26.6,29.70,North,0,3.4,4.0,38,0.00,,,0.00,WUHU216HW,2013-02-04 21:06:00,
2013-02-04 14:08:00,51.5,26.6,29.69,NNE,23,6.7,6.7,38,0.00,,,0.00,WUHU216HW,2013-02-04 21:08:00,
2013-02-04 14:09:00,51.5,26.6,29.70,North,0,2.5,6.7,38,0.00,,,0.00,WUHU216HW,2013-02-04 21:09:00,
2013-02-04 14:10:00,51.5,26.6,29.70,North,0,7.2,7.2,38,0.00,,,0.00,WUHU216HW,2013-02-04 21:10:00,
2013-02-04 14:11:00,51.7,26.0,29.70,North,0,7.2,7.2,37,0.00,,,0.00,WUHU216HW,2013-02-04 21:11:00,
2013-02-04 14:13:00,51.7,26.0,29.70,NNE,23,4.7,7.2,37,0.00,,,0.00,WUHU216HW,2013-02-04 21:13:00,
2013-02-04 14:14:00,51.8,26.2,29.70,NNW,338,6.9,7.2,37,0.00,,,0.00,WUHU216HW,2013-02-04 21:14:00,
2013-02-04 14:15:00,51.8,26.2,29.70,NNW,338,6.9,7.2,37,0.00,,,0.00,WUHU216HW,2013-02-04 21:15:00,
2013-02-04 14:16:00,51.8,26.2,29.70,North,0,4.3,7.2,37,0.00,,,0.00,WUHU216HW,2013-02-04 21:16:00,
2013-02-04 14:18:00,51.8,25.6,29.70,NNE,23,6.9,7.2,36,0.00,,,0.00,WUHU216HW,2013-02-04 21:18:00,
2013-02-04 14:19:00,51.8,24.8,29.70,NNW,338,6.9,7.2,35,0.00,,,0.00,WUHU216HW,2013-02-04 21:19:00,
2013-02-04 14:20:00,51.8,25.6,29.69,North,0,7.2,7.2,36,0.00,,,0.00,WUHU216HW,2013-02-04 21:20:00,
2013-02-04 14:21:00,51.8,24.8,29.69,NNE,23,5.6,7.2,35,0.00,,,0.00,WUHU216HW,2013-02-04 21:21:00,
2013-02-04 14:24:00,51.7,24.7,29.70,North,0,6.9,7.2,35,0.00,,,0.00,WUHU216HW,2013-02-04 21:24:00,
2013-02-04 14:25:00,51.5,25.2,29.70,North,0,4.7,7.2,36,0.00,,,0.00,WUHU216HW,2013-02-04 21:25:00,
2013-02-04 14:26:00,51.5,25.2,29.69,North,0,7.4,7.4,36,0.00,,,0.00,WUHU216HW,2013-02-04 21:26:00,
2013-02-04 14:29:00,51.5,25.2,29.70,NNE,23,4.0,7.4,36,0.00,,,0.00,WUHU216HW,2013-02-04 21:29:00,
2013-02-04 14:30:00,51.5,25.2,29.70,NNE,23,4.7,7.4,36,0.00,,,0.00,WUHU216HW,2013-02-04 21:30:00,
2013-02-04 14:31:00,51.5,25.9,29.70,North,0,2.0,7.4,37,0.00,,,0.00,WUHU216HW,2013-02-04 21:31:00,
2013-02-04 14:34:00,51.3,25.8,29.70,North,0,2.2,7.4,37,0.00,,,0.00,WUHU216HW,2013-02-04 21:34:00,
2013-02-04 14:35:00,51.3,25.8,29.70,NNE,23,1.8,7.4,37,0.00,,,0.00,WUHU216HW,2013-02-04 21:35:00,
2013-02-04 14:36:00,51.3,25.8,29.69,North,0,1.6,7.4,37,0.00,,,0.00,WUHU216HW,2013-02-04 21:36:00,
2013-02-04 14:39:00,51.1,25.6,29.70,NNE,23,4.3,7.2,37,0.00,,,0.00,WUHU216HW,2013-02-04 21:39:00,
2013-02-04 14:40:00,51.1,24.8,29.70,NE,45,7.6,7.6,36,0.00,,,0.00,WUHU216HW,2013-02-04 21:40:00,
2013-02-04 14:41:00,51.1,25.6,29.69,North,0,4.0,7.6,37,0.00,,,0.00,WUHU216HW,2013-02-04 21:41:00,
2013-02-04 14:44:00,50.9,25.4,29.69,North,0,3.6,7.6,37,0.00,,,0.00,WUHU216HW,2013-02-04 21:44:00,
2013-02-04 14:46:00,50.8,25.9,29.69,North,0,4.3,7.6,38,0.00,,,0.00,WUHU216HW,2013-02-04 21:46:00,
2013-02-04 14:49:00,50.8,25.2,29.69,NW,315,4.5,4.7,37,0.00,,,0.00,WUHU216HW,2013-02-04 21:49:00,
2013-02-04 14:51:00,50.8,25.9,29.70,WNW,293,2.5,4.7,38,0.00,,,0.00,WUHU216HW,2013-02-04 21:51:00,
2013-02-04 14:52:00,50.8,25.9,29.69,WNW,293,4.0,4.7,38,0.00,,,0.00,WUHU216HW,2013-02-04 21:52:00,
2013-02-04 14:54:00,50.8,25.2,29.69,West,270,6.7,6.9,37,0.00,,,0.00,WUHU216HW,2013-02-04 21:54:00,
2013-02-04 14:56:00,50.6,25.1,29.69,NW,315,6.9,8.7,37,0.00,,,0.00,WUHU216HW,2013-02-04 21:56:00,
2013-02-04 14:57:00,50.8,25.2,29.70,North,0,6.7,8.7,37,0.00,,,0.00,WUHU216HW,2013-02-04 21:57:00,
2013-02-04 15:00:00,50.6,25.7,29.70,West,270,6.9,8.7,38,0.00,,,0.00,WUHU216HW,2013-02-04 22:00:00,
2013-02-04 15:01:00,50.4,24.9,29.69,WNW,293,6.0,8.7,37,0.00,,,0.00,WUHU216HW,2013-02-04 22:01:00,
2013-02-04 15:02:00,50.4,24.9,29.70,NW,315,6.3,8.7,37,0.00,,,0.00,WUHU216HW,2013-02-04 22:02:00,
2013-02-04 15:05:00,50.2,25.5,29.70,NW,315,3.4,6.9,38,0.00,,,0.00,WUHU216HW,2013-02-04 22:05:00,
2013-02-04 15:06:00,50.2,25.5,29.70,WNW,293,5.6,6.9,38,0.00,,,0.00,WUHU216HW,2013-02-04 22:06:00,
2013-02-04 15:07:00,50.2,25.5,29.70,NW,315,7.2,7.2,38,0.00,,,0.00,WUHU216HW,2013-02-04 22:07:00,
2013-02-04 15:10:00,50.0,25.3,29.70,NNE,23,5.8,9.2,38,0.00,,,0.00,WUHU216HW,2013-02-04 22:10:00,
2013-02-04 15:11:00,50.0,25.3,29.70,NW,315,11.2,11.2,38,0.00,,,0.00,WUHU216HW,2013-02-04 22:11:00,
2013-02-04 15:12:00,50.0,25.3,29.70,NW,315,8.3,11.2,38,0.00,,,0.00,WUHU216HW,2013-02-04 22:12:00,
2013-02-04 15:15:00,49.9,25.1,29.70,NW,315,6.5,11.2,38,0.00,,,0.00,WUHU216HW,2013-02-04 22:15:00,
2013-02-04 15:16:00,49.9,25.1,29.70,NW,315,6.5,11.2,38,0.00,,,0.00,WUHU216HW,2013-02-04 22:16:00,
2013-02-04 15:17:00,49.9,25.1,29.70,NW,315,6.7,11.2,38,0.00,,,0.00,WUHU216HW,2013-02-04 22:17:00,
2013-02-04 15:18:00,49.9,25.1,29.70,North,0,5.8,11.2,38,0.00,,,0.00,WUHU216HW,2013-02-04 22:18:00,
2013-02-04 15:20:00,50.0,25.3,29.70,NW,315,6.7,11.2,38,0.00,,,0.00,WUHU216HW,2013-02-04 22:20:00,
2013-02-04 15:21:00,50.0,25.3,29.70,NNW,338,11.6,11.6,38,0.00,,,0.00,WUHU216HW,2013-02-04 22:21:00,
2013-02-04 15:22:00,50.0,25.3,29.70,North,0,8.5,11.6,38,0.00,,,0.00,WUHU216HW,2013-02-04 22:22:00,
2013-02-04 15:23:00,50.0,25.3,29.70,WNW,293,5.4,11.6,38,0.00,,,0.00,WUHU216HW,2013-02-04 22:23:00,
2013-02-04 15:25:00,50.0,25.3,29.70,North,0,6.3,11.6,38,0.00,,,0.00,WUHU216HW,2013-02-04 22:25:00,
2013-02-04 15:26:00,50.0,25.3,29.70,NNW,338,5.6,11.6,38,0.00,,,0.00,WUHU216HW,2013-02-04 22:26:00,
2013-02-04 15:27:00,50.0,25.3,29.70,NNW,338,5.6,11.6,38,0.00,,,0.00,WUHU216HW,2013-02-04 22:27:00,
2013-02-04 15:28:00,50.0,25.3,29.70,NNE,23,10.1,11.6,38,0.00,,,0.00,WUHU216HW,2013-02-04 22:28:00,
2013-02-04 15:30:00,50.0,25.3,29.70,WNW,293,7.6,11.6,38,0.00,,,0.00,WUHU216HW,2013-02-04 22:30:00,
2013-02-04 15:31:00,50.0,25.9,29.70,NW,315,4.7,10.1,39,0.00,,,0.00,WUHU216HW,2013-02-04 22:31:00,
2013-02-04 15:32:00,50.0,25.9,29.70,NW,315,5.8,10.1,39,0.00,,,0.00,WUHU216HW,2013-02-04 22:32:00,
2013-02-04 15:33:00,50.0,25.3,29.70,NNW,338,6.3,10.1,38,0.00,,,0.00,WUHU216HW,2013-02-04 22:33:00,
2013-02-04 15:35:00,50.0,25.3,29.70,West,270,4.7,10.1,38,0.00,,,0.00,WUHU216HW,2013-02-04 22:35:00,
2013-02-04 15:37:00,50.0,25.3,29.70,WNW,293,2.2,10.1,38,0.00,,,0.00,WUHU216HW,2013-02-04 22:37:00,
2013-02-04 15:38:00,49.9,25.1,29.71,NNW,338,6.3,7.6,38,0.00,,,0.00,WUHU216HW,2013-02-04 22:38:00,
2013-02-04 15:41:00,49.7,24.9,29.71,NW,315,4.7,6.3,38,0.00,,,0.00,WUHU216HW,2013-02-04 22:41:00,
2013-02-04 15:42:00,49.7,24.9,29.71,NNW,338,3.4,6.3,38,0.00,,,0.00,WUHU216HW,2013-02-04 22:42:00,
2013-02-04 15:43:00,49.7,24.9,29.71,WNW,293,3.1,6.3,38,0.00,,,0.00,WUHU216HW,2013-02-04 22:43:00,
2013-02-04 15:46:00,49.7,24.9,29.71,North,0,6.7,6.7,38,0.00,,,0.00,WUHU216HW,2013-02-04 22:46:00,
2013-02-04 15:47:00,49.7,24.9,29.71,North,0,6.7,6.7,38,0.00,,,0.00,WUHU216HW,2013-02-04 22:47:00,
2013-02-04 15:49:00,49.7,24.9,29.70,NW,315,4.0,6.7,38,0.00,,,0.00,WUHU216HW,2013-02-04 22:49:00,
2013-02-04 15:51:00,49.7,24.9,29.70,West,270,6.7,6.7,38,0.00,,,0.00,WUHU216HW,2013-02-04 22:51:00,
2013-02-04 15:52:00,49.9,25.8,29.70,North,0,6.0,6.7,39,0.00,,,0.00,WUHU216HW,2013-02-04 22:52:00,
2013-02-04 15:53:00,49.9,25.8,29.70,North,0,6.0,6.7,39,0.00,,,0.00,WUHU216HW,2013-02-04 22:53:00,
2013-02-04 15:54:00,49.9,25.8,29.70,WNW,293,10.1,10.1,39,0.00,,,0.00,WUHU216HW,2013-02-04 22:54:00,
2013-02-04 15:56:00,49.7,24.9,29.70,NNW,338,6.0,10.7,38,0.00,,,0.00,WUHU216HW,2013-02-04 22:56:00,
2013-02-04 15:57:00,49.9,25.8,29.70,NW,315,8.1,10.7,39,0.00,,,0.00,WUHU216HW,2013-02-04 22:57:00,
2013-02-04 15:58:00,49.9,25.8,29.70,NW,315,8.1,10.7,39,0.00,,,0.00,WUHU216HW,2013-02-04 22:58:00,
2013-02-04 15:59:00,49.9,25.8,29.70,WNW,293,8.1,10.7,39,0.00,,,0.00,WUHU216HW,2013-02-04 22:59:00,
2013-02-04 16:01:00,49.7,25.7,29.70,North,0,8.1,10.7,39,0.00,,,0.00,WUHU216HW,2013-02-04 23:01:00,
2013-02-04 16:02:00,49.7,25.7,29.70,WNW,293,5.1,10.7,39,0.00,,,0.00,WUHU216HW,2013-02-04 23:02:00,
2013-02-04 16:03:00,49.7,25.7,29.70,NNW,338,8.1,10.7,39,0.00,,,0.00,WUHU216HW,2013-02-04 23:03:00,
2013-02-04 16:04:00,49.7,25.7,29.70,NNW,338,3.6,10.7,39,0.00,,,0.00,WUHU216HW,2013-02-04 23:04:00,
2013-02-04 16:06:00,49.7,25.7,29.70,NNW,338,4.9,8.1,39,0.00,,,0.00,WUHU216HW,2013-02-04 23:06:00,
2013-02-04 16:08:00,49.7,25.7,29.70,NW,315,5.4,8.1,39,0.00,,,0.00,WUHU216HW,2013-02-04 23:08:00,
2013-02-04 16:09:00,49.7,25.7,29.70,NW,315,8.5,8.5,39,0.00,,,0.00,WUHU216HW,2013-02-04 23:09:00,
2013-02-04 16:12:00,49.5,25.5,29.70,NNW,338,7.6,8.5,39,0.00,,,0.00,WUHU216HW,2013-02-04 23:12:00,
2013-02-04 16:13:00,49.5,25.5,29.70,NW,315,3.8,8.5,39,0.00,,,0.00,WUHU216HW,2013-02-04 23:13:00,
2013-02-04 16:14:00,49.5,25.5,29.70,NW,315,6.3,8.5,39,0.00,,,0.00,WUHU216HW,2013-02-04 23:14:00,
2013-02-04 16:17:00,49.3,25.3,29.70,North,0,4.7,8.5,39,0.00,,,0.00,WUHU216HW,2013-02-04 23:17:00,
2013-02-04 16:18:00,49.3,25.3,29.70,NNW,338,7.6,8.5,39,0.00,,,0.00,WUHU216HW,2013-02-04 23:18:00,
2013-02-04 16:19:00,49.3,25.3,29.70,NNW,338,9.4,9.4,39,0.00,,,0.00,WUHU216HW,2013-02-04 23:19:00,
2013-02-04 16:22:00,49.3,26.0,29.69,NW,315,3.4,9.4,40,0.00,,,0.00,WUHU216HW,2013-02-04 23:22:00,
2013-02-04 16:23:00,49.3,26.0,29.69,NW,315,4.7,9.4,40,0.00,,,0.00,WUHU216HW,2013-02-04 23:23:00,
2013-02-04 16:25:00,49.3,26.0,29.69,NW,315,6.9,9.4,40,0.00,,,0.00,WUHU216HW,2013-02-04 23:25:00,
2013-02-04 16:27:00,49.3,25.3,29.69,North,0,6.3,9.4,39,0.00,,,0.00,WUHU216HW,2013-02-04 23:27:00,
2013-02-04 16:28:00,49.3,25.3,29.69,North,0,4.5,9.4,39,0.00,,,0.00,WUHU216HW,2013-02-04 23:28:00,
2013-02-04 16:31:00,49.3,26.0,29.69,NNW,338,4.0,9.2,40,0.00,,,0.00,WUHU216HW,2013-02-04 23:31:00,
2013-02-04 16:32:00,49.3,26.0,29.69,North,0,4.3,9.2,40,0.00,,,0.00,WUHU216HW,2013-02-04 23:32:00,
2013-02-04 16:33:00,49.3,26.0,29.69,North,0,6.3,9.2,40,0.00,,,0.00,WUHU216HW,2013-02-04 23:33:00,
2013-02-04 16:34:00,49.3,26.0,29.69,North,0,6.3,9.2,40,0.00,,,0.00,WUHU216HW,2013-02-04 23:34:00,
2013-02-04 16:36:00,49.3,25.3,29.69,NW,315,9.2,9.2,39,0.00,,,0.00,WUHU216HW,2013-02-04 23:36:00,
2013-02-04 16:37:00,49.3,26.0,29.69,WNW,293,6.7,9.2,40,0.00,,,0.00,WUHU216HW,2013-02-04 23:37:00,
2013-02-04 16:38:00,49.3,26.0,29.69,WNW,293,6.7,9.2,40,0.00,,,0.00,WUHU216HW,2013-02-04 23:38:00,
2013-02-04 16:39:00,49.3,26.0,29.69,North,0,5.4,9.2,40,0.00,,,0.00,WUHU216HW,2013-02-04 23:39:00,
2013-02-04 16:41:00,49.3,26.0,29.69,North,0,5.4,9.2,40,0.00,,,0.00,WUHU216HW,2013-02-04 23:41:00,
2013-02-04 16:42:00,49.3,26.0,29.69,North,0,6.3,9.2,40,0.00,,,0.00,WUHU216HW,2013-02-04 23:42:00,
2013-02-04 16:44:00,49.3,26.0,29.69,NE,45,5.8,9.2,40,0.00,,,0.00,WUHU216HW,2013-02-04 23:44:00,
2013-02-04 16:46:00,49.3,26.0,29.69,NNW,338,3.1,9.2,40,0.00,,,0.00,WUHU216HW,2013-02-04 23:46:00,
2013-02-04 16:47:00,49.3,26.0,29.69,WNW,293,5.4,6.7,40,0.00,,,0.00,WUHU216HW,2013-02-04 23:47:00,
2013-02-04 16:49:00,49.3,26.0,29.69,NNE,23,8.1,8.1,40,0.00,,,0.00,WUHU216HW,2013-02-04 23:49:00,
2013-02-04 16:51:00,49.3,26.0,29.69,NNW,338,6.5,9.8,40,0.00,,,0.00,WUHU216HW,2013-02-04 23:51:00,
2013-02-04 16:53:00,49.1,25.8,29.69,North,0,7.8,9.8,40,0.00,,,0.00,WUHU216HW,2013-02-04 23:53:00,
2013-02-04 16:54:00,49.1,25.8,29.69,West,270,4.9,9.8,40,0.00,,,0.00,WUHU216HW,2013-02-04 23:54:00,
2013-02-04 16:56:00,49.1,25.8,29.69,North,0,4.7,9.8,40,0.00,,,0.00,WUHU216HW,2013-02-04 23:56:00,
2013-02-04 16:58:00,49.0,25.7,29.68,NNW,338,6.3,9.8,40,0.00,,,0.00,WUHU216HW,2013-02-04 23:58:00,
2013-02-04 16:59:00,49.0,25.7,29.68,NNW,338,5.8,8.5,40,0.00,,,0.00,WUHU216HW,2013-02-04 23:59:00,
2013-02-04 17:01:00,49.0,26.2,29.68,NW,315,7.6,7.8,41,0.00,,,0.00,WUHU216HW,2013-02-05 00:01:00,
2013-02-04 17:03:00,49.0,26.2,29.68,NW,315,5.4,7.6,41,0.00,,,0.00,WUHU216HW,2013-02-05 00:03:00,
2013-02-04 17:04:00,49.0,26.2,29.68,NNW,338,6.7,7.6,41,0.00,,,0.00,WUHU216HW,2013-02-05 00:04:00,
2013-02-04 17:07:00,48.8,26.0,29.68,WNW,293,4.9,8.9,41,0.00,,,0.00,WUHU216HW,2013-02-05 00:07:00,
2013-02-04 17:08:00,48.8,26.0,29.68,North,0,9.2,9.2,41,0.00,,,0.00,WUHU216HW,2013-02-05 00:08:00,
2013-02-04 17:09:00,48.8,26.0,29.68,North,0,5.8,9.2,41,0.00,,,0.00,WUHU216HW,2013-02-05 00:09:00,
2013-02-04 17:10:00,48.8,26.0,29.68,North,0,5.8,9.2,41,0.00,,,0.00,WUHU216HW,2013-02-05 00:10:00,
2013-02-04 17:12:00,48.6,26.5,29.68,North,0,7.6,9.8,42,0.00,,,0.00,WUHU216HW,2013-02-05 00:12:00,
2013-02-04 17:13:00,48.6,26.5,29.68,NNW,338,6.9,9.8,42,0.00,,,0.00,WUHU216HW,2013-02-05 00:13:00,
2013-02-04 17:15:00,48.6,26.5,29.69,North,0,9.6,9.8,42,0.00,,,0.00,WUHU216HW,2013-02-05 00:15:00,
2013-02-04 17:17:00,48.4,26.3,29.69,North,0,6.3,9.8,42,0.00,,,0.00,WUHU216HW,2013-02-05 00:17:00,
2013-02-04 17:18:00,48.4,26.3,29.69,NNW,338,6.7,9.8,42,0.00,,,0.00,WUHU216HW,2013-02-05 00:18:00,
2013-02-04 17:20:00,48.2,26.1,29.69,NNE,23,10.1,10.1,42,0.00,,,0.00,WUHU216HW,2013-02-05 00:20:00,
2013-02-04 17:22:00,48.2,26.1,29.69,North,0,3.1,10.1,42,0.00,,,0.00,WUHU216HW,2013-02-05 00:22:00,
2013-02-04 17:23:00,48.2,26.6,29.70,North,0,4.0,10.1,43,0.00,,,0.00,WUHU216HW,2013-02-05 00:23:00,
2013-02-04 17:25:00,48.1,26.5,29.69,NNW,338,7.4,10.1,43,0.00,,,0.00,WUHU216HW,2013-02-05 00:25:00,
2013-02-04 17:27:00,48.1,26.5,29.69,NNW,338,2.2,10.1,43,0.00,,,0.00,WUHU216HW,2013-02-05 00:27:00,
2013-02-04 17:28:00,47.9,26.3,29.70,North,0,2.9,10.1,43,0.00,,,0.00,WUHU216HW,2013-02-05 00:28:00,
2013-02-04 17:30:00,47.9,26.3,29.70,NW,315,6.7,7.4,43,0.00,,,0.00,WUHU216HW,2013-02-05 00:30:00,
2013-02-04 17:32:00,47.9,26.3,29.70,NW,315,10.5,10.5,43,0.00,,,0.00,WUHU216HW,2013-02-05 00:32:00,
2013-02-04 17:33:00,47.9,26.3,29.70,NNW,338,4.7,10.5,43,0.00,,,0.00,WUHU216HW,2013-02-05 00:33:00,
2013-02-04 17:35:00,47.9,26.3,29.70,NNW,338,6.0,10.5,43,0.00,,,0.00,WUHU216HW,2013-02-05 00:35:00,
2013-02-04 17:37:00,47.9,26.8,29.70,North,0,4.5,10.5,44,0.00,,,0.00,WUHU216HW,2013-02-05 00:37:00,
2013-02-04 17:38:00,47.9,26.8,29.70,NNW,338,9.6,10.5,44,0.00,,,0.00,WUHU216HW,2013-02-05 00:38:00,
2013-02-04 17:40:00,47.9,26.3,29.70,NNW,338,5.4,10.5,43,0.00,,,0.00,WUHU216HW,2013-02-05 00:40:00,
2013-02-04 17:43:00,47.9,26.8,29.70,NW,315,6.3,9.6,44,0.00,,,0.00,WUHU216HW,2013-02-05 00:43:00,
2013-02-04 17:45:00,47.9,26.8,29.71,NNW,338,4.0,9.6,44,0.00,,,0.00,WUHU216HW,2013-02-05 00:45:00,
2013-02-04 17:48:00,47.9,26.8,29.71,North,0,6.0,9.6,44,0.00,,,0.00,WUHU216HW,2013-02-05 00:48:00,
2013-02-04 17:49:00,47.7,26.7,29.71,NNW,338,6.3,7.4,44,0.00,,,0.00,WUHU216HW,2013-02-05 00:49:00,
2013-02-04 17:50:00,47.9,26.8,29.71,North,0,2.9,6.5,44,0.00,,,0.00,WUHU216HW,2013-02-05 00:50:00,
2013-02-04 17:51:00,47.9,26.8,29.71,North,0,2.9,6.5,44,0.00,,,0.00,WUHU216HW,2013-02-05 00:51:00,
2013-02-04 17:53:00,47.7,26.7,29.71,NNW,338,5.4,6.5,44,0.00,,,0.00,WUHU216HW,2013-02-05 00:53:00,
2013-02-04 17:54:00,47.7,26.7,29.71,NNW,338,5.4,6.5,44,0.00,,,0.00,WUHU216HW,2013-02-05 00:54:00,
2013-02-04 17:56:00,47.7,26.7,29.71,North,0,5.8,6.5,44,0.00,,,0.00,WUHU216HW,2013-02-05 00:56:00,
2013-02-04 17:58:00,47.7,26.7,29.72,NW,315,6.3,6.5,44,0.00,,,0.00,WUHU216HW,2013-02-05 00:58:00,
2013-02-04 17:59:00,47.7,26.7,29.71,North,0,4.0,6.3,44,0.00,,,0.00,WUHU216HW,2013-02-05 00:59:00,
2013-02-04 18:01:00,47.7,26.7,29.72,NNE,23,2.2,6.3,44,0.00,,,0.00,WUHU216HW,2013-02-05 01:01:00,
2013-02-04 18:03:00,47.5,26.6,29.72,NNW,338,2.5,6.3,44,0.00,,,0.00,WUHU216HW,2013-02-05 01:03:00,
2013-02-04 18:04:00,47.5,26.6,29.72,NW,315,1.8,6.3,44,0.00,,,0.00,WUHU216HW,2013-02-05 01:04:00,
2013-02-04 18:06:00,47.5,26.6,29.72,North,0,2.5,6.3,44,0.00,,,0.00,WUHU216HW,2013-02-05 01:06:00,
2013-02-04 18:08:00,47.3,26.4,29.72,North,0,1.3,4.0,44,0.00,,,0.00,WUHU216HW,2013-02-05 01:08:00,
2013-02-04 18:09:00,47.3,26.4,29.72,NW,315,1.3,4.0,44,0.00,,,0.00,WUHU216HW,2013-02-05 01:09:00,
2013-02-04 18:11:00,47.2,26.2,29.72,NW,315,4.0,4.7,44,0.00,,,0.00,WUHU216HW,2013-02-05 01:11:00,
2013-02-04 18:13:00,47.2,26.7,29.72,West,270,1.8,4.7,45,0.00,,,0.00,WUHU216HW,2013-02-05 01:13:00,
2013-02-04 18:15:00,47.2,26.7,29.72,WSW,248,2.2,4.7,45,0.00,,,0.00,WUHU216HW,2013-02-05 01:15:00,
2013-02-04 18:16:00,47.0,26.6,29.72,NNW,338,4.0,4.7,45,0.00,,,0.00,WUHU216HW,2013-02-05 01:16:00,
2013-02-04 18:19:00,46.8,26.5,29.72,WNW,293,1.8,5.4,45,0.00,,,0.00,WUHU216HW,2013-02-05 01:19:00,
2013-02-04 18:20:00,46.8,26.5,29.72,WNW,293,4.7,5.4,45,0.00,,,0.00,WUHU216HW,2013-02-05 01:20:00,
2013-02-04 18:21:00,46.8,26.5,29.72,NW,315,1.8,5.4,45,0.00,,,0.00,WUHU216HW,2013-02-05 01:21:00,
2013-02-04 18:22:00,46.8,26.5,29.72,NW,315,1.8,5.4,45,0.00,,,0.00,WUHU216HW,2013-02-05 01:22:00,
2013-02-04 18:24:00,46.8,26.5,29.72,North,0,4.7,5.4,45,0.00,,,0.00,WUHU216HW,2013-02-05 01:24:00,
2013-02-04 18:25:00,46.6,26.3,29.72,NNW,338,3.1,5.4,45,0.00,,,0.00,WUHU216HW,2013-02-05 01:25:00,
2013-02-04 18:26:00,46.8,26.5,29.72,North,0,6.5,6.5,45,0.00,,,0.00,WUHU216HW,2013-02-05 01:26:00,
2013-02-04 18:27:00,46.6,26.3,29.72,NNW,338,3.1,6.5,45,0.00,,,0.00,WUHU216HW,2013-02-05 01:27:00,
2013-02-04 18:29:00,46.6,26.8,29.72,NNW,338,4.7,6.5,46,0.00,,,0.00,WUHU216HW,2013-02-05 01:29:00,
2013-02-04 18:30:00,46.6,26.3,29.72,North,0,1.8,6.5,45,0.00,,,0.00,WUHU216HW,2013-02-05 01:30:00,
2013-02-04 18:31:00,46.4,26.6,29.72,NNW,338,3.4,6.5,46,0.00,,,0.00,WUHU216HW,2013-02-05 01:31:00,
2013-02-04 18:32:00,46.4,26.6,29.72,North,0,4.7,6.5,46,0.00,,,0.00,WUHU216HW,2013-02-05 01:32:00,
2013-02-04 18:34:00,46.4,26.6,29.72,NNW,338,5.4,6.5,46,0.00,,,0.00,WUHU216HW,2013-02-05 01:34:00,
2013-02-04 18:35:00,46.3,26.5,29.72,North,0,2.0,6.5,46,0.00,,,0.00,WUHU216HW,2013-02-05 01:35:00,
2013-02-04 18:36:00,46.3,26.5,29.72,NW,315,6.0,6.0,46,0.00,,,0.00,WUHU216HW,2013-02-05 01:36:00,
2013-02-04 18:37:00,46.1,26.3,29.72,North,0,1.8,6.0,46,0.00,,,0.00,WUHU216HW,2013-02-05 01:37:00,
2013-02-04 18:39:00,46.1,26.8,29.72,NNW,338,2.5,6.0,47,0.00,,,0.00,WUHU216HW,2013-02-05 01:39:00,
2013-02-04 18:40:00,46.1,26.8,29.73,North,0,2.0,6.0,47,0.00,,,0.00,WUHU216HW,2013-02-05 01:40:00,
2013-02-04 18:41:00,45.9,26.7,29.73,North,0,6.3,6.3,47,0.00,,,0.00,WUHU216HW,2013-02-05 01:41:00,
2013-02-04 18:42:00,45.9,26.7,29.73,NNE,23,1.8,6.3,47,0.00,,,0.00,WUHU216HW,2013-02-05 01:42:00,
2013-02-04 18:44:00,45.7,26.6,29.73,NNE,23,2.2,6.3,47,0.00,,,0.00,WUHU216HW,2013-02-05 01:44:00,
2013-02-04 18:45:00,45.7,26.6,29.73,NNE,23,4.3,6.3,47,0.00,,,0.00,WUHU216HW,2013-02-05 01:45:00,
2013-02-04 18:47:00,45.7,26.6,29.73,NNE,23,1.8,6.3,47,0.00,,,0.00,WUHU216HW,2013-02-05 01:47:00,
2013-02-04 18:49:00,45.7,27.1,29.73,North,0,2.5,6.3,48,0.00,,,0.00,WUHU216HW,2013-02-05 01:49:00,
2013-02-04 18:50:00,45.5,26.9,29.73,North,0,1.3,6.3,48,0.00,,,0.00,WUHU216HW,2013-02-05 01:50:00,
2013-02-04 18:52:00,45.5,26.9,29.73,North,0,1.8,4.3,48,0.00,,,0.00,WUHU216HW,2013-02-05 01:52:00,
2013-02-04 18:55:00,45.4,26.7,29.73,NW,315,2.9,4.3,48,0.00,,,0.00,WUHU216HW,2013-02-05 01:55:00,
2013-02-04 18:57:00,45.4,26.7,29.73,North,0,1.1,3.4,48,0.00,,,0.00,WUHU216HW,2013-02-05 01:57:00,
2013-02-04 19:00:00,45.2,26.6,29.72,NNW,338,1.3,3.4,48,0.00,,,0.00,WUHU216HW,2013-02-05 02:00:00,
2013-02-04 19:02:00,45.0,26.5,29.73,WNW,293,1.1,3.4,48,0.00,,,0.00,WUHU216HW,2013-02-05 02:02:00,
2013-02-04 19:03:00,45.0,26.5,29.73,NW,315,2.0,2.9,48,0.00,,,0.00,WUHU216HW,2013-02-05 02:03:00,
2013-02-04 19:05:00,45.0,26.5,29.73,NW,315,0.0,2.2,48,0.00,,,0.00,WUHU216HW,2013-02-05 02:05:00,
2013-02-04 19:07:00,45.0,26.5,29.73,NNW,338,0.0,2.2,48,0.00,,,0.00,WUHU216HW,2013-02-05 02:07:00,
2013-02-04 19:08:00,45.0,27.0,29.74,NNW,338,0.0,2.2,49,0.00,,,0.00,WUHU216HW,2013-02-05 02:08:00,
2013-02-04 19:10:00,44.8,26.8,29.73,West,270,0.2,2.2,49,0.00,,,0.00,WUHU216HW,2013-02-05 02:10:00,
2013-02-04 19:11:00,44.8,26.8,29.73,West,270,0.2,2.0,49,0.00,,,0.00,WUHU216HW,2013-02-05 02:11:00,
2013-02-04 19:13:00,44.6,26.6,29.74,ESE,113,0.0,0.2,49,0.00,,,0.00,WUHU216HW,2013-02-05 02:13:00,
2013-02-04 19:16:00,44.6,26.6,29.74,NNW,338,0.4,0.4,49,0.00,,,0.00,WUHU216HW,2013-02-05 02:16:00,
2013-02-04 19:18:00,44.3,26.3,29.73,NNW,338,0.4,1.1,49,0.00,,,0.00,WUHU216HW,2013-02-05 02:18:00,
2013-02-04 19:19:00,44.3,26.3,29.73,NNW,338,0.4,1.1,49,0.00,,,0.00,WUHU216HW,2013-02-05 02:19:00,
2013-02-04 19:21:00,44.3,26.3,29.73,West,270,0.7,1.1,49,0.00,,,0.00,WUHU216HW,2013-02-05 02:21:00,
2013-02-04 19:23:00,44.1,26.2,29.74,West,270,2.5,2.5,49,0.00,,,0.00,WUHU216HW,2013-02-05 02:23:00,
2013-02-04 19:24:00,44.1,26.2,29.74,West,270,1.6,2.5,49,0.00,,,0.00,WUHU216HW,2013-02-05 02:24:00,
2013-02-04 19:26:00,43.9,26.0,29.74,WSW,248,1.1,2.5,49,0.00,,,0.00,WUHU216HW,2013-02-05 02:26:00,
2013-02-04 19:28:00,43.7,25.8,29.74,WNW,293,3.6,3.6,49,0.00,,,0.00,WUHU216HW,2013-02-05 02:28:00,
2013-02-04 19:29:00,43.7,25.8,29.75,West,270,2.5,3.6,49,0.00,,,0.00,WUHU216HW,2013-02-05 02:29:00,
2013-02-04 19:31:00,43.7,26.4,29.74,West,270,1.3,3.6,50,0.00,,,0.00,WUHU216HW,2013-02-05 02:31:00,
2013-02-04 19:33:00,43.7,26.4,29.74,West,270,1.3,3.6,50,0.00,,,0.00,WUHU216HW,2013-02-05 02:33:00,
2013-02-04 19:34:00,43.6,26.2,29.74,NE,45,0.2,3.6,50,0.00,,,0.00,WUHU216HW,2013-02-05 02:34:00,
2013-02-04 19:36:00,43.7,26.4,29.75,NNW,338,0.9,3.6,50,0.00,,,0.00,WUHU216HW,2013-02-05 02:36:00,
2013-02-04 19:39:00,43.6,26.2,29.75,NNW,338,0.4,2.5,50,0.00,,,0.00,WUHU216HW,2013-02-05 02:39:00,
2013-02-04 19:41:00,43.6,26.2,29.74,North,0,0.7,1.8,50,0.00,,,0.00,WUHU216HW,2013-02-05 02:41:00,
2013-02-04 19:42:00,43.6,26.2,29.74,North,0,0.7,1.8,50,0.00,,,0.00,WUHU216HW,2013-02-05 02:42:00,
2013-02-04 19:44:00,43.6,26.2,29.75,NNW,338,0.2,1.1,50,0.00,,,0.00,WUHU216HW,2013-02-05 02:44:00,
2013-02-04 19:45:00,43.6,26.2,29.75,NNW,338,0.2,1.1,50,0.00,,,0.00,WUHU216HW,2013-02-05 02:45:00,
2013-02-04 19:46:00,43.6,26.2,29.75,North,0,0.7,1.1,50,0.00,,,0.00,WUHU216HW,2013-02-05 02:46:00,
2013-02-04 19:47:00,43.6,26.2,29.75,North,0,0.7,1.1,50,0.00,,,0.00,WUHU216HW,2013-02-05 02:47:00,
2013-02-04 19:49:00,43.4,26.0,29.75,NNW,338,0.9,1.1,50,0.00,,,0.00,WUHU216HW,2013-02-05 02:49:00,
2013-02-04 19:50:00,43.4,26.0,29.75,NNW,338,0.4,1.1,50,0.00,,,0.00,WUHU216HW,2013-02-05 02:50:00,
2013-02-04 19:51:00,43.4,26.0,29.75,NW,315,0.0,1.1,50,0.00,,,0.00,WUHU216HW,2013-02-05 02:51:00,
2013-02-04 19:52:00,43.4,26.0,29.75,NW,315,0.0,1.1,50,0.00,,,0.00,WUHU216HW,2013-02-05 02:52:00,
2013-02-04 19:55:00,43.2,25.9,29.75,NNW,338,0.0,1.1,50,0.00,,,0.00,WUHU216HW,2013-02-05 02:55:00,
2013-02-04 19:56:00,43.2,26.3,29.75,North,0,0.0,1.1,51,0.00,,,0.00,WUHU216HW,2013-02-05 02:56:00,
2013-02-04 19:57:00,43.2,26.3,29.75,North,0,0.0,1.1,51,0.00,,,0.00,WUHU216HW,2013-02-05 02:57:00,
2013-02-04 20:00:00,43.0,26.2,29.75,NNW,338,1.1,1.1,51,0.00,,,0.00,WUHU216HW,2013-02-05 03:00:00,
2013-02-04 20:01:00,42.8,26.0,29.75,NW,315,0.4,1.1,51,0.00,,,0.00,WUHU216HW,2013-02-05 03:01:00,
2013-02-04 20:02:00,42.8,26.0,29.75,WSW,248,1.3,1.3,51,0.00,,,0.00,WUHU216HW,2013-02-05 03:02:00,
2013-02-04 20:05:00,42.8,26.0,29.75,West,270,0.4,3.8,51,0.00,,,0.00,WUHU216HW,2013-02-05 03:05:00,
2013-02-04 20:07:00,42.8,26.0,29.75,NW,315,1.8,3.8,51,0.00,,,0.00,WUHU216HW,2013-02-05 03:07:00,
2013-02-04 20:10:00,43.0,26.2,29.75,NNW,338,1.1,3.8,51,0.00,,,0.00,WUHU216HW,2013-02-05 03:10:00,
2013-02-04 20:12:00,43.0,26.2,29.75,NE,45,0.7,3.8,51,0.00,,,0.00,WUHU216HW,2013-02-05 03:12:00,
2013-02-04 20:15:00,43.0,26.2,29.75,NNE,23,1.6,2.9,51,0.00,,,0.00,WUHU216HW,2013-02-05 03:15:00,
2013-02-04 20:17:00,43.0,26.6,29.75,NNE,23,1.8,2.9,52,0.00,,,0.00,WUHU216HW,2013-02-05 03:17:00,
2013-02-04 20:20:00,42.8,26.5,29.75,NE,45,0.7,2.2,52,0.00,,,0.00,WUHU216HW,2013-02-05 03:20:00,
2013-02-04 20:22:00,42.8,26.5,29.75,NNE,23,0.9,2.2,52,0.00,,,0.00,WUHU216HW,2013-02-05 03:22:00,
2013-02-04 20:25:00,42.8,26.5,29.75,North,0,0.7,2.2,52,0.00,,,0.00,WUHU216HW,2013-02-05 03:25:00,
2013-02-04 20:26:00,42.8,26.5,29.75,North,0,0.7,2.2,52,0.00,,,0.00,WUHU216HW,2013-02-05 03:26:00,
2013-02-04 20:27:00,42.8,26.5,29.75,NNE,23,1.1,2.2,52,0.00,,,0.00,WUHU216HW,2013-02-05 03:27:00,
2013-02-04 20:30:00,42.7,26.3,29.75,NNE,23,0.7,1.1,52,0.00,,,0.00,WUHU216HW,2013-02-05 03:30:00,
2013-02-04 20:31:00,42.7,26.3,29.75,NE,45,1.1,1.1,52,0.00,,,0.00,WUHU216HW,2013-02-05 03:31:00,
2013-02-04 20:32:00,42.5,26.1,29.75,North,0,0.9,1.1,52,0.00,,,0.00,WUHU216HW,2013-02-05 03:32:00,
2013-02-04 20:33:00,42.5,26.1,29.75,North,0,1.1,1.1,52,0.00,,,0.00,WUHU216HW,2013-02-05 03:33:00,
2013-02-04 20:35:00,42.3,25.5,29.75,NNE,23,0.4,1.1,51,0.00,,,0.00,WUHU216HW,2013-02-05 03:35:00,
2013-02-04 20:36:00,42.3,25.5,29.76,NNE,23,1.1,1.1,51,0.00,,,0.00,WUHU216HW,2013-02-05 03:36:00,
2013-02-04 20:37:00,42.3,25.5,29.76,NNE,23,0.2,1.1,51,0.00,,,0.00,WUHU216HW,2013-02-05 03:37:00,
2013-02-04 20:38:00,42.1,25.3,29.75,North,0,1.1,1.1,51,0.00,,,0.00,WUHU216HW,2013-02-05 03:38:00,
2013-02-04 20:40:00,42.1,25.3,29.76,North,0,1.8,1.8,51,0.00,,,0.00,WUHU216HW,2013-02-05 03:40:00,
2013-02-04 20:42:00,42.1,25.3,29.75,ENE,68,1.8,1.8,51,0.00,,,0.00,WUHU216HW,2013-02-05 03:42:00,
2013-02-04 20:43:00,41.9,25.6,29.76,NNE,23,2.5,2.5,52,0.00,,,0.00,WUHU216HW,2013-02-05 03:43:00,
2013-02-04 20:44:00,41.9,25.6,29.76,NNE,23,2.5,2.5,52,0.00,,,0.00,WUHU216HW,2013-02-05 03:44:00,
2013-02-04 20:45:00,41.9,25.6,29.76,NNE,23,2.0,3.1,52,0.00,,,0.00,WUHU216HW,2013-02-05 03:45:00,
2013-02-04 20:47:00,41.9,25.6,29.76,NNE,23,4.7,4.7,52,0.00,,,0.00,WUHU216HW,2013-02-05 03:47:00,
2013-02-04 20:48:00,42.1,25.8,29.76,NNE,23,4.5,4.7,52,0.00,,,0.00,WUHU216HW,2013-02-05 03:48:00,
2013-02-04 20:49:00,42.1,25.8,29.75,NNE,23,3.4,4.7,52,0.00,,,0.00,WUHU216HW,2013-02-05 03:49:00,
2013-02-04 20:50:00,42.1,25.8,29.75,North,0,4.0,4.7,52,0.00,,,0.00,WUHU216HW,2013-02-05 03:50:00,
2013-02-04 20:53:00,42.3,25.9,29.76,North,0,2.0,4.7,52,0.00,,,0.00,WUHU216HW,2013-02-05 03:53:00,
2013-02-04 20:54:00,42.5,26.6,29.76,NNE,23,2.5,4.7,53,0.00,,,0.00,WUHU216HW,2013-02-05 03:54:00,
2013-02-04 20:55:00,42.5,26.6,29.76,North,0,3.4,4.7,53,0.00,,,0.00,WUHU216HW,2013-02-05 03:55:00,
2013-02-04 20:58:00,42.5,26.6,29.76,North,0,2.0,4.0,53,0.00,,,0.00,WUHU216HW,2013-02-05 03:58:00,
2013-02-04 20:59:00,42.7,26.6,29.76,North,0,3.6,4.0,53,0.00,,,0.00,WUHU216HW,2013-02-05 03:59:00,
2013-02-04 21:00:00,42.7,26.6,29.76,NNE,23,1.3,3.6,53,0.00,,,0.00,WUHU216HW,2013-02-05 04:00:00,
2013-02-04 21:03:00,42.7,26.6,29.76,North,0,3.4,3.6,53,0.00,,,0.00,WUHU216HW,2013-02-05 04:03:00,
2013-02-04 21:04:00,42.7,26.6,29.76,North,0,1.8,3.6,53,0.00,,,0.00,WUHU216HW,2013-02-05 04:04:00,
2013-02-04 21:05:00,42.7,26.6,29.76,NNW,338,2.7,3.6,53,0.00,,,0.00,WUHU216HW,2013-02-05 04:05:00,
2013-02-04 21:08:00,42.7,26.6,29.76,NNE,23,3.1,3.6,53,0.00,,,0.00,WUHU216HW,2013-02-05 04:08:00,
2013-02-04 21:09:00,42.5,26.6,29.76,North,0,2.5,3.4,53,0.00,,,0.00,WUHU216HW,2013-02-05 04:09:00,
2013-02-04 21:11:00,42.7,26.6,29.76,NNE,23,2.9,3.4,53,0.00,,,0.00,WUHU216HW,2013-02-05 04:11:00,
2013-02-04 21:13:00,42.5,26.6,29.76,North,0,4.7,4.7,53,0.00,,,0.00,WUHU216HW,2013-02-05 04:13:00,
2013-02-04 21:14:00,42.5,26.6,29.76,North,0,2.9,4.7,53,0.00,,,0.00,WUHU216HW,2013-02-05 04:14:00,
2013-02-04 21:16:00,42.5,26.6,29.76,North,0,4.7,4.7,53,0.00,,,0.00,WUHU216HW,2013-02-05 04:16:00,
2013-02-04 21:18:00,42.5,26.6,29.76,North,0,2.5,4.7,53,0.00,,,0.00,WUHU216HW,2013-02-05 04:18:00,
2013-02-04 21:19:00,42.5,26.6,29.76,North,0,2.7,4.7,53,0.00,,,0.00,WUHU216HW,2013-02-05 04:19:00,
2013-02-04 21:21:00,42.5,26.6,29.77,North,0,3.4,4.7,53,0.00,,,0.00,WUHU216HW,2013-02-05 04:21:00,
2013-02-04 21:23:00,42.5,26.6,29.77,NNE,23,3.8,4.7,53,0.00,,,0.00,WUHU216HW,2013-02-05 04:23:00,
2013-02-04 21:24:00,42.5,26.6,29.77,WNW,293,2.9,4.7,53,0.00,,,0.00,WUHU216HW,2013-02-05 04:24:00,
2013-02-04 21:25:00,42.5,26.6,29.77,NNE,23,1.6,4.7,53,0.00,,,0.00,WUHU216HW,2013-02-05 04:25:00,
2013-02-04 21:26:00,42.5,26.6,29.77,North,0,2.7,4.7,53,0.00,,,0.00,WUHU216HW,2013-02-05 04:26:00,
2013-02-04 21:29:00,42.3,25.9,29.77,North,0,2.7,4.7,52,0.00,,,0.00,WUHU216HW,2013-02-05 04:29:00,
2013-02-04 21:30:00,42.1,25.8,29.77,NE,45,0.7,3.8,52,0.00,,,0.00,WUHU216HW,2013-02-05 04:30:00,
2013-02-04 21:31:00,42.1,25.8,29.77,North,0,2.5,3.8,52,0.00,,,0.00,WUHU216HW,2013-02-05 04:31:00,
2013-02-04 21:34:00,42.1,25.8,29.77,NNE,23,1.1,3.4,52,0.00,,,0.00,WUHU216HW,2013-02-05 04:34:00,
2013-02-04 21:35:00,41.9,26.0,29.78,North,0,1.6,3.4,53,0.00,,,0.00,WUHU216HW,2013-02-05 04:35:00,
2013-02-04 21:37:00,41.8,25.8,29.78,NNE,23,1.1,3.4,53,0.00,,,0.00,WUHU216HW,2013-02-05 04:37:00,
2013-02-04 21:39:00,41.8,25.8,29.78,NNE,23,1.6,3.4,53,0.00,,,0.00,WUHU216HW,2013-02-05 04:39:00,
2013-02-04 21:40:00,41.8,25.8,29.78,NNE,23,1.6,3.4,53,0.00,,,0.00,WUHU216HW,2013-02-05 04:40:00,
2013-02-04 21:43:00,41.6,25.7,29.78,NNE,23,1.8,1.8,53,0.00,,,0.00,WUHU216HW,2013-02-05 04:43:00,
2013-02-04 21:44:00,41.4,25.5,29.78,North,0,4.3,4.3,53,0.00,,,0.00,WUHU216HW,2013-02-05 04:44:00,
2013-02-04 21:45:00,41.4,25.5,29.78,North,0,4.3,4.3,53,0.00,,,0.00,WUHU216HW,2013-02-05 04:45:00,
2013-02-04 21:48:00,41.4,25.9,29.78,NE,45,1.8,4.3,54,0.00,,,0.00,WUHU216HW,2013-02-05 04:48:00,
2013-02-04 21:49:00,41.4,25.9,29.78,NE,45,1.8,4.3,54,0.00,,,0.00,WUHU216HW,2013-02-05 04:49:00,
2013-02-04 21:50:00,41.2,25.8,29.78,NE,45,3.4,4.3,54,0.00,,,0.00,WUHU216HW,2013-02-05 04:50:00,
2013-02-04 21:53:00,41.2,25.8,29.78,NNE,23,4.0,4.3,54,0.00,,,0.00,WUHU216HW,2013-02-05 04:53:00,
2013-02-04 21:54:00,41.2,25.8,29.78,NNE,23,2.5,4.3,54,0.00,,,0.00,WUHU216HW,2013-02-05 04:54:00,
2013-02-04 21:55:00,41.2,25.8,29.78,NNE,23,3.1,4.0,54,0.00,,,0.00,WUHU216HW,2013-02-05 04:55:00,
2013-02-04 21:56:00,41.2,25.8,29.78,NNE,23,3.1,4.0,54,0.00,,,0.00,WUHU216HW,2013-02-05 04:56:00,
2013-02-04 21:58:00,41.2,25.8,29.78,NNE,23,1.1,4.0,54,0.00,,,0.00,WUHU216HW,2013-02-05 04:58:00,
2013-02-04 22:00:00,41.2,25.8,29.78,NNW,338,1.3,4.0,54,0.00,,,0.00,WUHU216HW,2013-02-05 05:00:00,
2013-02-04 22:01:00,41.0,25.6,29.78,NNE,23,1.8,4.0,54,0.00,,,0.00,WUHU216HW,2013-02-05 05:01:00,
2013-02-04 22:05:00,41.0,25.6,29.78,North,0,2.2,4.0,54,0.00,,,0.00,WUHU216HW,2013-02-05 05:05:00,
2013-02-04 22:06:00,41.0,25.6,29.78,NNW,338,3.6,4.0,54,0.00,,,0.00,WUHU216HW,2013-02-05 05:06:00,
2013-02-04 22:10:00,41.0,26.0,29.78,North,0,1.8,3.6,55,0.00,,,0.00,WUHU216HW,2013-02-05 05:10:00,
2013-02-04 22:11:00,41.0,26.0,29.78,NNE,23,1.3,3.6,55,0.00,,,0.00,WUHU216HW,2013-02-05 05:11:00,
2013-02-04 22:15:00,41.0,26.0,29.78,North,0,4.0,4.0,55,0.00,,,0.00,WUHU216HW,2013-02-05 05:15:00,
2013-02-04 22:16:00,41.0,26.0,29.78,North,0,2.5,4.0,55,0.00,,,0.00,WUHU216HW,2013-02-05 05:16:00,
2013-02-04 22:20:00,41.0,26.0,29.78,North,0,1.6,4.0,55,0.00,,,0.00,WUHU216HW,2013-02-05 05:20:00,
2013-02-04 22:21:00,41.0,26.0,29.78,North,0,1.6,4.0,55,0.00,,,0.00,WUHU216HW,2013-02-05 05:21:00,
2013-02-04 22:25:00,41.0,26.0,29.78,North,0,2.5,4.0,55,0.00,,,0.00,WUHU216HW,2013-02-05 05:25:00,
2013-02-04 22:26:00,41.0,26.0,29.78,NNE,23,1.8,4.0,55,0.00,,,0.00,WUHU216HW,2013-02-05 05:26:00,
2013-02-04 22:30:00,41.0,26.0,29.78,North,0,0.9,3.1,55,0.00,,,0.00,WUHU216HW,2013-02-05 05:30:00,
2013-02-04 22:31:00,41.0,26.0,29.78,North,0,0.9,3.1,55,0.00,,,0.00,WUHU216HW,2013-02-05 05:31:00,
2013-02-04 22:32:00,41.0,26.0,29.78,NNW,338,3.6,3.6,55,0.00,,,0.00,WUHU216HW,2013-02-05 05:32:00,
2013-02-04 22:35:00,41.0,26.0,29.78,NNE,23,1.8,5.1,55,0.00,,,0.00,WUHU216HW,2013-02-05 05:35:00,
2013-02-04 22:36:00,41.0,26.0,29.78,North,0,1.8,5.1,55,0.00,,,0.00,WUHU216HW,2013-02-05 05:36:00,
2013-02-04 22:37:00,41.0,26.0,29.78,North,0,0.9,5.1,55,0.00,,,0.00,WUHU216HW,2013-02-05 05:37:00,
2013-02-04 22:40:00,41.0,26.0,29.78,ENE,68,2.0,5.1,55,0.00,,,0.00,WUHU216HW,2013-02-05 05:40:00,
2013-02-04 22:41:00,40.9,25.8,29.78,North,0,3.4,5.1,55,0.00,,,0.00,WUHU216HW,2013-02-05 05:41:00,
2013-02-04 22:42:00,41.0,26.0,29.78,North,0,1.8,5.1,55,0.00,,,0.00,WUHU216HW,2013-02-05 05:42:00,
2013-02-04 22:45:00,40.9,25.8,29.78,NNE,23,1.8,3.4,55,0.00,,,0.00,WUHU216HW,2013-02-05 05:45:00,
2013-02-04 22:46:00,40.9,25.8,29.78,NNE,23,4.5,4.5,55,0.00,,,0.00,WUHU216HW,2013-02-05 05:46:00,
2013-02-04 22:47:00,40.9,25.8,29.78,North,0,6.7,6.7,55,0.00,,,0.00,WUHU216HW,2013-02-05 05:47:00,
2013-02-04 22:50:00,40.9,25.8,29.78,NNE,23,1.6,6.7,55,0.00,,,0.00,WUHU216HW,2013-02-05 05:50:00,
2013-02-04 22:51:00,41.0,26.0,29.78,NNW,338,2.7,6.7,55,0.00,,,0.00,WUHU216HW,2013-02-05 05:51:00,
2013-02-04 22:52:00,41.0,26.0,29.78,NNW,338,2.7,6.7,55,0.00,,,0.00,WUHU216HW,2013-02-05 05:52:00,
2013-02-04 22:56:00,41.0,26.0,29.78,NE,45,1.8,6.7,55,0.00,,,0.00,WUHU216HW,2013-02-05 05:56:00,
2013-02-04 22:57:00,41.2,26.2,29.78,NNE,23,2.5,3.8,55,0.00,,,0.00,WUHU216HW,2013-02-05 05:57:00,
2013-02-04 23:01:00,41.2,26.2,29.78,NNE,23,2.5,3.4,55,0.00,,,0.00,WUHU216HW,2013-02-05 06:01:00,
2013-02-04 23:02:00,41.2,26.2,29.78,NNE,23,2.0,3.4,55,0.00,,,0.00,WUHU216HW,2013-02-05 06:02:00,
2013-02-04 23:06:00,41.2,26.2,29.78,NNE,23,2.9,5.6,55,0.00,,,0.00,WUHU216HW,2013-02-05 06:06:00,
2013-02-04 23:07:00,41.2,26.2,29.78,NNW,338,5.6,5.6,55,0.00,,,0.00,WUHU216HW,2013-02-05 06:07:00,
2013-02-04 23:08:00,41.2,26.2,29.78,NNW,338,5.6,5.6,55,0.00,,,0.00,WUHU216HW,2013-02-05 06:08:00,
2013-02-04 23:11:00,41.2,25.8,29.78,NNE,23,6.5,6.5,54,0.00,,,0.00,WUHU216HW,2013-02-05 06:11:00,
2013-02-04 23:12:00,41.2,25.8,29.78,NNE,23,6.5,6.5,54,0.00,,,0.00,WUHU216HW,2013-02-05 06:12:00,
2013-02-04 23:13:00,41.2,25.8,29.78,North,0,7.2,7.2,54,0.00,,,0.00,WUHU216HW,2013-02-05 06:13:00,
2013-02-04 23:17:00,41.4,25.9,29.78,NW,315,5.4,9.4,54,0.00,,,0.00,WUHU216HW,2013-02-05 06:17:00,
2013-02-04 23:18:00,41.4,25.9,29.79,NNE,23,3.4,9.4,54,0.00,,,0.00,WUHU216HW,2013-02-05 06:18:00,
2013-02-04 23:22:00,41.4,25.9,29.78,NNW,338,4.0,9.4,54,0.00,,,0.00,WUHU216HW,2013-02-05 06:22:00,
2013-02-04 23:23:00,41.4,25.9,29.78,NNE,23,2.5,9.4,54,0.00,,,0.00,WUHU216HW,2013-02-05 06:23:00,
2013-02-04 23:27:00,41.4,25.9,29.79,North,0,5.4,8.5,54,0.00,,,0.00,WUHU216HW,2013-02-05 06:27:00,
2013-02-04 23:28:00,41.4,25.9,29.79,NNE,23,5.4,8.5,54,0.00,,,0.00,WUHU216HW,2013-02-05 06:28:00,
2013-02-04 23:32:00,41.4,25.9,29.79,NNE,23,3.1,8.5,54,0.00,,,0.00,WUHU216HW,2013-02-05 06:32:00,
2013-02-04 23:33:00,41.4,25.9,29.79,North,0,3.6,8.5,54,0.00,,,0.00,WUHU216HW,2013-02-05 06:33:00,
2013-02-04 23:37:00,41.4,25.9,29.79,North,0,6.0,6.9,54,0.00,,,0.00,WUHU216HW,2013-02-05 06:37:00,
2013-02-04 23:38:00,41.4,25.9,29.79,North,0,6.0,6.9,54,0.00,,,0.00,WUHU216HW,2013-02-05 06:38:00,
2013-02-04 23:42:00,41.4,25.9,29.79,NE,45,2.5,6.9,54,0.00,,,0.00,WUHU216HW,2013-02-05 06:42:00,
2013-02-04 23:43:00,41.4,25.9,29.79,NE,45,2.5,6.9,54,0.00,,,0.00,WUHU216HW,2013-02-05 06:43:00,
2013-02-04 23:44:00,41.4,25.5,29.80,North,0,4.0,6.0,53,0.00,,,0.00,WUHU216HW,2013-02-05 06:44:00,
2013-02-04 23:47:00,41.6,25.7,29.80,North,0,2.5,5.8,53,0.00,,,0.00,WUHU216HW,2013-02-05 06:47:00,
2013-02-04 23:48:00,41.6,25.7,29.80,North,0,2.5,5.8,53,0.00,,,0.00,WUHU216HW,2013-02-05 06:48:00,
2013-02-04 23:49:00,41.6,25.7,29.80,North,0,2.5,5.8,53,0.00,,,0.00,WUHU216HW,2013-02-05 06:49:00,
2013-02-04 23:52:00,41.4,25.9,29.80,North,0,2.5,5.8,54,0.00,,,0.00,WUHU216HW,2013-02-05 06:52:00,
2013-02-04 23:53:00,41.4,25.9,29.80,North,0,2.5,5.8,54,0.00,,,0.00,WUHU216HW,2013-02-05 06:53:00,
2013-02-04 23:54:00,41.4,25.5,29.80,North,0,7.2,7.2,53,0.00,,,0.00,WUHU216HW,2013-02-05 06:54:00,
2013-02-04 23:57:00,41.6,26.1,29.80,NNE,23,3.8,7.2,54,0.00,,,0.00,WUHU216HW,2013-02-05 06:57:00,
2013-02-04 23:58:00,41.6,26.1,29.80,NNE,23,3.8,7.2,54,0.00,,,0.00,WUHU216HW,2013-02-05 06:58:00,
2013-02-04 23:59:00,41.6,25.7,29.80,NNE,23,5.1,7.2,53,0.00,,,0.00,WUHU216HW,2013-02-05 06:59:00,